SondeTracker

Meteorological Radiosondes Database

Operations

Sounding was ended - last measurement: 2022-12-07 01:45:06z

MAP
About Radiosonde

Number: U0150543

Launch Site: Huelva (ES)

Type: RS41

AUX: NO

Frequency: 402.504 MHz

Max Speed: 161 km/h at 33504 m

Average Speed: 55.13 km/h

Max Altitude: 33673 m

Average Ascent Speed: 4.86 m/s

Average Descent Speed: 14.30 m/s

Status: UNKNOWN

Status Changes
Launch Site Type AUX Frequency Status Finder Landing Point Description Changes made by
APRS Statistics

Received Frames: 629

First Frame [UTC]: 2022-12-06 23:38:03z

Last Frame [UTC]: 2022-12-07 01:45:06z

Receivers: CT1EDG, CT7ABP-10, CT7AUS-11, EA4EKH-11, EA4GBR-10, EA7KDT, WINDFER

Flight Time: 02:07:03 h

Distance From First Measurement: 111.22 km

Nearest City: Paradas (ES) [2.39 km]

Nearest Hunter: EA7KE [11.05 km]

Ground Altitude: 83 m

Distance from QTH: 0.00 km

APRS Data
Receiver Number Date/Time [UTC] φ λ Course [°] Speed [km/h] Altitude [m] Description
EA7KDTU01505432022-12-07 01:45:0637.2886-5.5236383222113Clb=-7.9m/s t=4.0C h=19.7% p=791.2hPa 402.502 MHz Type=RS41-SGP ser=U0150543 Radiosonde
EA7KDTU01505432022-12-07 01:44:3537.2883-5.5251478282251Clb=-7.4m/s t=3.4C h=18.6% p=778.0hPa 402.502 MHz Type=RS41-SGP ser=U0150543 Radiosonde
EA7KDTU01505432022-12-07 01:44:0437.2879-5.5279579312462Clb=-7.2m/s t=2.7C h=31.5% p=757.9hPa 402.502 MHz Type=RS41-SGP ser=U0150543 Radiosonde
EA7KDTU01505432022-12-07 01:43:3337.2874-5.5309779312676Clb=-7.2m/s t=1.3C h=38.9% p=738.4hPa 402.502 MHz Type=RS41-SGP ser=U0150543 Radiosonde
EA7KDTU01505432022-12-07 01:43:0237.2869-5.5343474332906Clb=-7.3m/s t=-0.2C h=32.8% p=717.3hPa 402.502 MHz Type=RS41-SGP ser=U0150543 Radiosonde
EA7KDTU01505432022-12-07 01:42:3137.2861-5.5375667373129Clb=-7.7m/s t=-1.3C h=32.9% p=697.5hPa 402.502 MHz Type=RS41-SGP ser=U0150543 Radiosonde
EA7KDTU01505432022-12-07 01:42:0037.2851-5.5407971373357Clb=-7.5m/s t=-2.6C h=25.6% p=677.9hPa 402.502 MHz Type=RS41-SGP ser=U0150543 Radiosonde
EA7KDTU01505432022-12-07 01:41:2837.2846-5.5443586353580Clb=-7.5m/s t=-3.3C h=11.1% p=659.1hPa 402.502 MHz Type=RS41-SGP ser=U0150543 Radiosonde
EA7KDTU01505432022-12-07 01:40:5737.2845-5.5480787413808Clb=-7.2m/s t=-4.6C h=20.7% p=640.5hPa 402.502 MHz Type=RS41-SGP ser=U0150543 Radiosonde
EA7KDTU01505432022-12-07 01:40:2637.2841-5.5521873414035Clb=-7.5m/s t=-5.9C h=79.7% p=622.1hPa 402.502 MHz Type=RS41-SGP ser=U0150543 Radiosonde
EA7KDTU01505432022-12-07 01:39:5537.2833-5.5558273374260Clb=-7.3m/s t=-7.5C h=87.6% p=604.4hPa 402.502 MHz Type=RS41-SGP ser=U0150543 Radiosonde
EA7KDTU01505432022-12-07 01:39:2437.2824-5.5592270374495Clb=-7.3m/s t=-9.0C h=87.8% p=586.7hPa 402.502 MHz Type=RS41-SGP ser=U0150543 Radiosonde
EA7KDTU01505432022-12-07 01:38:5337.2815-5.5625970354721Clb=-7.2m/s t=-10.1C h=78.1% p=569.7hPa 402.502 MHz Type=RS41-SGP ser=U0150543 Radiosonde
EA7KDTU01505432022-12-07 01:38:2237.2803-5.5658966394958Clb=-7.7m/s t=-11.8C h=81.3% p=552.4hPa 402.502 MHz Type=RS41-SGP ser=U0150543 Radiosonde
EA7KDTU01505432022-12-07 01:37:5137.2792-5.5701176525194Clb=-7.6m/s t=-13.5C h=79.8% p=535.6hPa 402.502 MHz Type=RS41-SGP ser=U0150543 Radiosonde
EA7KDTU01505432022-12-07 01:37:2037.2781-5.5751372505433Clb=-7.6m/s t=-15.4C h=74.4% p=519.2hPa 402.502 MHz Type=RS41-SGP ser=U0150543 Radiosonde
EA7KDTU01505432022-12-07 01:36:4937.2769-5.5799170465675Clb=-7.8m/s t=-17.4C h=79.6% p=502.8hPa 402.502 MHz Type=RS41-SGP ser=U0150543 Radiosonde
EA7KDTU01505432022-12-07 01:36:1837.2755-5.5843767465914Clb=-7.6m/s t=-19.5C h=93.2% p=486.9hPa 402.502 MHz Type=RS41-SGP ser=U0150543 Radiosonde
EA7KDTU01505432022-12-07 01:35:4737.2738-5.588560466156Clb=-7.9m/s t=-21.0C h=84.5% p=471.5hPa 402.502 MHz Type=RS41-SGP ser=U0150543 Radiosonde
EA7KDTU01505432022-12-07 01:35:1637.2721-5.592566486394Clb=-8.2m/s t=-22.6C h=71.9% p=456.5hPa 402.502 MHz Type=RS41-SGP ser=U0150543 Radiosonde
WINDFERU01505432022-12-07 01:34:5437.271-5.5957170526564Clb=-8.0m/s t=-24.1C h=64.5% p=446.0hPa 402.505 MHz Type=RS41-SGP ser=U0150543 Radiosonde
EA7KDTU01505432022-12-07 01:34:4537.2706-5.5971974576632Clb=-7.4m/s t=-24.1C h=27.9% p=441.9hPa 402.502 MHz Type=RS41-SGP ser=U0150543 Radiosonde
EA7KDTU01505432022-12-07 01:34:1337.2694-5.6030475636874Clb=-7.9m/s t=-25.8C h=22.4% p=427.5hPa 402.502 MHz Type=RS41-SGP ser=U0150543 Radiosonde
EA7KDTU01505432022-12-07 01:33:4237.2683-5.6093780697123Clb=-7.9m/s t=-27.8C h=24.6% p=413.0hPa 402.502 MHz Type=RS41-SGP ser=U0150543 Radiosonde
EA7KDTU01505432022-12-07 01:33:1137.2676-5.6160582697380Clb=-8.8m/s t=-29.9C h=27.4% p=398.5hPa 402.502 MHz Type=RS41-SGP ser=U0150543 Radiosonde
WINDFERU01505432022-12-07 01:32:4937.267-5.6209378727574Clb=-8.9m/s t=-31.5C h=33.2% p=387.8hPa 402.505 MHz Type=RS41-SGP ser=U0150543 Radiosonde
EA7KDTU01505432022-12-07 01:32:4037.2667-5.6229477727654Clb=-8.8m/s t=-32.1C h=28.7% p=383.4hPa 402.502 MHz Type=RS41-SGP ser=U0150543 Radiosonde
EA7KDTU01505432022-12-07 01:32:0937.2654-5.6302276807936Clb=-9.5m/s t=-34.5C h=26.2% p=368.4hPa 402.502 MHz Type=RS41-SGP ser=U0150543 Radiosonde
EA7KDTU01505432022-12-07 01:31:3837.2642-5.6378379768226Clb=-9.8m/s t=-37.0C h=28.8% p=353.5hPa 402.502 MHz Type=RS41-SGP ser=U0150543 Radiosonde
EA7KDTU01505432022-12-07 01:31:0737.2635-5.6447983708524Clb=-8.8m/s t=-39.7C h=29.5% p=338.5hPa 402.502 MHz Type=RS41-SGP ser=U0150543 Radiosonde
WINDFERU01505432022-12-07 01:30:4537.2632-5.6499985808738Clb=-10.1m/s t=-41.0C h=19.0% p=328.2hPa 402.505 MHz Type=RS41-SGP ser=U0150543 Radiosonde
EA7KDTU01505432022-12-07 01:30:3637.263-5.6523384838825Clb=-9.8m/s t=-41.8C h=17.2% p=323.9hPa 402.502 MHz Type=RS41-SGP ser=U0150543 Radiosonde
WINDFERU01505432022-12-07 01:30:1437.2626-5.6590385859067Clb=-9.0m/s t=-43.8C h=18.1% p=312.5hPa 402.505 MHz Type=RS41-SGP ser=U0150543 Radiosonde
EA7KDTU01505432022-12-07 01:30:0537.2625-5.6606786879124Clb=-9.8m/s t=-44.4C h=18.8% p=309.9hPa 402.502 MHz Type=RS41-SGP ser=U0150543 Radiosonde
WINDFERU01505432022-12-07 01:29:4337.2623-5.6680889919388Clb=-9.4m/s t=-46.7C h=23.7% p=298.0hPa 402.505 MHz Type=RS41-SGP ser=U0150543 Radiosonde
EA7KDTU01505432022-12-07 01:29:3437.2623-5.6692190919427Clb=-10.1m/s t=-47.0C h=25.1% p=296.1hPa 402.502 MHz Type=RS41-SGP ser=U0150543 Radiosonde
EA4EKH-11U01505432022-12-07 01:29:2937.2624-5.6762691949666Clb=-10.0m/s t=-273.0C h=-1.0% p=-1.0hPa 402.500 MHz Type=RS41 ser=U0150543 Radiosonde
EA7KDTU01505432022-12-07 01:29:0337.2625-5.6786892969745Clb=-10.3m/s t=-50.1C h=35.1% p=282.3hPa 402.502 MHz Type=RS41-SGP ser=U0150543 Radiosonde
EA7KDTU01505432022-12-07 01:28:3237.263-5.68779949110062Clb=-10.7m/s t=-53.0C h=36.5% p=268.8hPa 402.502 MHz Type=RS41-SGP ser=U0150543 Radiosonde
WINDFERU01505432022-12-07 01:28:1037.2632-5.69422938110324Clb=-11.2m/s t=-54.9C h=33.0% p=258.1hPa 402.505 MHz Type=RS41-SGP ser=U0150543 Radiosonde
EA7KDTU01505432022-12-07 01:28:0137.2632-5.69597897810403Clb=-11.2m/s t=-55.0C h=31.2% p=255.0hPa 402.502 MHz Type=RS41-SGP ser=U0150543 Radiosonde
WINDFERU01505432022-12-07 01:27:3937.2629-5.70126857410641Clb=-11.3m/s t=-56.6C h=27.5% p=245.6hPa 402.505 MHz Type=RS41-SGP ser=U0150543 Radiosonde
EA7KDTU01505432022-12-07 01:27:2937.2629-5.70344907610741Clb=-11.3m/s t=-57.1C h=25.7% p=241.9hPa 402.502 MHz Type=RS41-SGP ser=U0150543 Radiosonde
WINDFERU01505432022-12-07 01:27:0837.2629-5.70902878710989Clb=-10.8m/s t=-58.4C h=20.8% p=232.5hPa 402.505 MHz Type=RS41-SGP ser=U0150543 Radiosonde
EA7KDTU01505432022-12-07 01:26:5937.2628-5.71155879111090Clb=-11.6m/s t=-59.3C h=20.1% p=228.9hPa 402.502 MHz Type=RS41-SGP ser=U0150543 Radiosonde
WINDFERU01505432022-12-07 01:26:3737.2625-5.71792908911334Clb=-10.9m/s t=-61.1C h=17.3% p=220.1hPa 402.505 MHz Type=RS41-SGP ser=U0150543 Radiosonde
EA7KDTU01505432022-12-07 01:26:2837.2625-5.72032907611436Clb=-11.3m/s t=-60.5C h=14.5% p=216.5hPa 402.502 MHz Type=RS41-SGP ser=U0150543 Radiosonde
WINDFERU01505432022-12-07 01:26:0637.2624-5.72521857011681Clb=-11.1m/s t=-60.7C h=10.6% p=208.1hPa 402.505 MHz Type=RS41-SGP ser=U0150543 Radiosonde
EA7KDTU01505432022-12-07 01:25:5737.2622-5.72718846911784Clb=-11.0m/s t=-60.3C h=9.0% p=204.7hPa 402.502 MHz Type=RS41-SGP ser=U0150543 Radiosonde
EA4EKH-11U01505432022-12-07 01:25:5237.262-5.73176907012020Clb=-12.2m/s t=-58.9C h=6.5% p=197.2hPa 402.500 MHz Type=RS41-SGP ser=U0150543 Radiosonde
WINDFERU01505432022-12-07 01:25:3537.262-5.73198906912032Clb=-11.8m/s t=-58.8C h=6.5% p=196.8hPa 402.505 MHz Type=RS41-SGP ser=U0150543 Radiosonde
EA7KDTU01505432022-12-07 01:25:2537.262-5.73387886712139Clb=-11.9m/s t=-59.1C h=6.2% p=193.5hPa 402.502 MHz Type=RS41-SGP ser=U0150543 Radiosonde
WINDFERU01505432022-12-07 01:25:0337.2614-5.73857777012401Clb=-11.5m/s t=-58.3C h=5.4% p=185.6hPa 402.505 MHz Type=RS41-SGP ser=U0150543 Radiosonde
EA7KDTU01505432022-12-07 01:24:5437.261-5.74044746312508Clb=-11.3m/s t=-58.2C h=5.2% p=182.5hPa 402.502 MHz Type=RS41-SGP ser=U0150543 Radiosonde
EA4EKH-11U01505432022-12-07 01:24:5037.2602-5.7435685912700Clb=-10.2m/s t=-58.7C h=4.8% p=176.9hPa 402.500 MHz Type=RS41-SGP ser=U0150543 Radiosonde
WINDFERU01505432022-12-07 01:24:3237.2599-5.74438676112752Clb=-11.6m/s t=-58.5C h=4.4% p=175.6hPa 402.505 MHz Type=RS41-SGP ser=U0150543 Radiosonde
EA7KDTU01505432022-12-07 01:24:2437.2593-5.74607667012856Clb=-12.3m/s t=-58.5C h=4.1% p=172.7hPa 402.502 MHz Type=RS41-SGP ser=U0150543 Radiosonde
WINDFERU01505432022-12-07 01:24:0137.2575-5.75091678113120Clb=-11.2m/s t=-59.9C h=4.1% p=165.5hPa 402.505 MHz Type=RS41-SGP ser=U0150543 Radiosonde
EA7KDTU01505432022-12-07 01:23:5237.257-5.753757013222Clb=-12.6m/s t=-59.5C h=3.7% p=162.9hPa 402.502 MHz Type=RS41-SGP ser=U0150543 Radiosonde
EA4EKH-11U01505432022-12-07 01:23:4837.2568-5.75406806713281Clb=-11.1m/s t=-59.3C h=3.7% p=161.4hPa 402.500 MHz Type=RS41-SGP ser=U0150543 Radiosonde
WINDFERU01505432022-12-07 01:23:3037.2566-5.75762906713485Clb=-12.2m/s t=-59.4C h=3.4% p=156.3hPa 402.505 MHz Type=RS41-SGP ser=U0150543 Radiosonde
EA7KDTU01505432022-12-07 01:23:2137.2567-5.7594945913595Clb=-13.4m/s t=-58.9C h=3.2% p=153.7hPa 402.502 MHz Type=RS41-SGP ser=U0150543 Radiosonde
EA4EKH-11U01505432022-12-07 01:23:1737.2567-5.76035876313660Clb=-13.6m/s t=-59.3C h=3.2% p=152.0hPa 402.500 MHz Type=RS41-SGP ser=U0150543 Radiosonde
CT7AUS-11U01505432022-12-07 01:23:1337.2566-5.76233856913785Clb=-13.3m/s t=-60.1C h=3.4% p=149.0hPa 402.500 MHz Type=RS41-SGP ser=U0150543 Radiosonde
EA7KDTU01505432022-12-07 01:22:5037.2564-5.76558906113999Clb=-13.6m/s t=-59.8C h=3.2% p=144.0hPa 402.502 MHz Type=RS41-SGP ser=U0150543 Radiosonde
EA4EKH-11U01505432022-12-07 01:22:4637.2565-5.76643955214067Clb=-13.2m/s t=-59.5C h=3.0% p=142.5hPa 402.500 MHz Type=RS41-SGP ser=U0150543 Radiosonde
WINDFERU01505432022-12-07 01:22:2837.2566-5.76939925414292Clb=-14.0m/s t=-60.7C h=3.2% p=137.5hPa 402.505 MHz Type=RS41-SGP ser=U0150543 Radiosonde
EA7KDTU01505432022-12-07 01:22:1937.2567-5.77098925214419Clb=-14.8m/s t=-61.4C h=3.3% p=134.7hPa 402.502 MHz Type=RS41-SGP ser=U0150543 Radiosonde
EA4EKH-11U01505432022-12-07 01:22:1537.2568-5.77182985414490Clb=-14.8m/s t=-62.0C h=3.3% p=133.1hPa 402.500 MHz Type=RS41-SGP ser=U0150543 Radiosonde
WINDFERU01505432022-12-07 01:21:5737.257-5.77479935214725Clb=-14.4m/s t=-63.5C h=3.7% p=128.2hPa 402.504 MHz Type=RS41-SGP ser=U0150543 Radiosonde
EA7KDTU01505432022-12-07 01:21:4837.257-5.77628894614853Clb=-14.5m/s t=-63.9C h=3.9% p=125.6hPa 402.502 MHz Type=RS41-SGP ser=U0150543 Radiosonde
EA4EKH-11U01505432022-12-07 01:21:4437.257-5.77707885214924Clb=-14.1m/s t=-64.2C h=3.9% p=124.1hPa 402.500 MHz Type=RS41-SGP ser=U0150543 Radiosonde
EA7KDTU01505432022-12-07 01:21:1737.2566-5.78059654315301Clb=-15.1m/s t=-63.7C h=3.8% p=116.7hPa 402.502 MHz Type=RS41-SGP ser=U0150543 Radiosonde
EA4EKH-11U01505432022-12-07 01:21:1337.2564-5.78128715015376Clb=-15.5m/s t=-63.3C h=3.6% p=115.4hPa 402.500 MHz Type=RS41-SGP ser=U0150543 Radiosonde
WINDFERU01505432022-12-07 01:20:5537.2559-5.78397925615634Clb=-16.1m/s t=-63.7C h=-1.0% p=-1.0hPa 402.504 MHz Type=RS41-SGP ser=U0150543 Radiosonde
EA7KDTU01505432022-12-07 01:20:4637.256-5.78561925715775Clb=-15.4m/s t=-63.8C h=3.6% p=108.1hPa 402.502 MHz Type=RS41-SGP ser=U0150543 Radiosonde
EA4EKH-11U01505432022-12-07 01:20:4237.256-5.78653835215851Clb=-16.5m/s t=-64.0C h=3.7% p=106.8hPa 402.500 MHz Type=RS41-SGP ser=U0150543 Radiosonde
WINDFERU01505432022-12-07 01:20:2437.2559-5.78935823916177Clb=-17.2m/s t=-63.8C h=-1.0% p=-1.0hPa 402.504 MHz Type=RS41 ser=U0150543 Radiosonde
EA7KDTU01505432022-12-07 01:20:1537.2558-5.79021814416271Clb=-16.4m/s t=-64.5C h=3.6% p=99.7hPa 402.502 MHz Type=RS41-SGP ser=U0150543 Radiosonde
EA4EKH-11U01505432022-12-07 01:20:1137.2558-5.79091894316354Clb=-17.7m/s t=-64.5C h=3.6% p=98.3hPa 402.500 MHz Type=RS41-SGP ser=U0150543 Radiosonde
CT7AUS-11U01505432022-12-07 01:20:0737.2558-5.79142883916422Clb=-17.0m/s t=-64.0C h=3.4% p=97.3hPa 402.500 MHz Type=RS41-SGP ser=U0150543 Radiosonde
WINDFERU01505432022-12-07 01:19:5337.2558-5.79308814116656Clb=-17.5m/s t=-63.6C h=-1.0% p=-1.0hPa 402.504 MHz Type=RS41 ser=U0150543 Radiosonde
EA7KDTU01505432022-12-07 01:19:4437.2556-5.79422745016794Clb=-18.0m/s t=-63.8C h=3.2% p=91.7hPa 402.502 MHz Type=RS41-SGP ser=U0150543 Radiosonde
EA4EKH-11U01505432022-12-07 01:19:3937.2555-5.79515825216900Clb=-18.3m/s t=-63.7C h=3.1% p=90.1hPa 402.500 MHz Type=RS41-SGP ser=U0150543 Radiosonde
EA7KDTU01505432022-12-07 01:19:1337.2553-5.79889924117349Clb=-18.1m/s t=-64.4C h=3.0% p=83.7hPa 402.502 MHz Type=RS41-SGP ser=U0150543 Radiosonde
EA4EKH-11U01505432022-12-07 01:19:0937.2554-5.79946973717440Clb=-18.1m/s t=-64.7C h=3.1% p=82.6hPa 402.500 MHz Type=RS41-SGP ser=U0150543 Radiosonde
WINDFERU01505432022-12-07 01:18:5137.2556-5.80189973117806Clb=-18.0m/s t=-65.3C h=-1.0% p=-1.0hPa 402.504 MHz Type=RS41 ser=U0150543 Radiosonde
EA7KDTU01505432022-12-07 01:18:4237.2557-5.80245882617916Clb=-18.9m/s t=-65.8C h=3.0% p=76.3hPa 402.502 MHz Type=RS41-SGP ser=U0150543 Radiosonde
EA4EKH-11U01505432022-12-07 01:18:3737.2557-5.80284752418011Clb=-19.0m/s t=-65.7C h=2.9% p=75.1hPa 402.500 MHz Type=RS41-SGP ser=U0150543 Radiosonde
CT7AUS-11U01505432022-12-07 01:18:3437.2556-5.80317722018105Clb=-19.4m/s t=-65.0C h=2.7% p=74.0hPa 402.500 MHz Type=RS41-SGP ser=U0150543 Radiosonde
WINDFERU01505432022-12-07 01:18:2037.2553-5.80426802418381Clb=-18.8m/s t=-273.0C h=-1.0% p=-1.0hPa 402.504 MHz Type=RS41 ser=U0150543 Radiosonde
EA7KDTU01505432022-12-07 01:18:1137.2552-5.80482763018506Clb=-18.1m/s t=-65.6C h=2.8% p=69.3hPa 402.502 MHz Type=RS41-SGP ser=U0150543 Radiosonde
EA4EKH-11U01505432022-12-07 01:18:0637.2551-5.8052703518579Clb=-18.6m/s t=-65.1C h=2.6% p=68.5hPa 402.500 MHz Type=RS41-SGP ser=U0150543 Radiosonde
CT7AUS-11U01505432022-12-07 01:18:0337.255-5.80563723518654Clb=-19.2m/s t=-65.4C h=2.7% p=67.7hPa 402.500 MHz Type=RS41-SGP ser=U0150543 Radiosonde
WINDFERU01505432022-12-07 01:17:4937.2548-5.80724773518972Clb=-19.1m/s t=-273.0C h=-1.0% p=-1.0hPa 402.504 MHz Type=RS41 ser=U0150543 Radiosonde
EA7KDTU01505432022-12-07 01:17:4037.2547-5.80785803919068Clb=-20.6m/s t=-63.4C h=2.2% p=63.2hPa 402.502 MHz Type=RS41-SGP ser=U0150543 Radiosonde
EA4EKH-11U01505432022-12-07 01:17:3537.2547-5.80846893719169Clb=-20.9m/s t=-63.1C h=2.1% p=62.2hPa 402.500 MHz Type=RS41-SGP ser=U0150543 Radiosonde
CT7AUS-11U01505432022-12-07 01:17:3137.2547-5.808881062819245Clb=-17.7m/s t=-63.1C h=2.1% p=61.4hPa 402.500 MHz Type=RS41-SGP ser=U0150543 Radiosonde
EA7KDTU01505432022-12-07 01:17:0937.2549-5.81032812219646Clb=-21.2m/s t=-63.9C h=2.1% p=57.6hPa 402.502 MHz Type=RS41-SGP ser=U0150543 Radiosonde
EA4EKH-11U01505432022-12-07 01:17:0437.2549-5.81071792419743Clb=-17.2m/s t=-63.6C h=2.1% p=56.6hPa 402.500 MHz Type=RS41-SGP ser=U0150543 Radiosonde
CT7AUS-11U01505432022-12-07 01:17:0137.2548-5.81102902419809Clb=-16.0m/s t=-63.4C h=2.1% p=56.0hPa 402.500 MHz Type=RS41-SGP ser=U0150543 Radiosonde
EA7KDTU01505432022-12-07 01:16:3837.2546-5.81265763120181Clb=-18.2m/s t=-63.1C h=2.1% p=52.7hPa 402.502 MHz Type=RS41-SGP ser=U0150543 Radiosonde
EA4EKH-11U01505432022-12-07 01:16:3437.2545-5.81307893320251Clb=-18.3m/s t=-62.5C h=2.0% p=52.1hPa 402.500 MHz Type=RS41-SGP ser=U0150543 Radiosonde
CT7AUS-11U01505432022-12-07 01:16:3037.2545-5.81414763120430Clb=-19.2m/s t=-62.2C h=1.9% p=50.7hPa 402.500 MHz Type=RS41-SGP ser=U0150543 Radiosonde
EA7KDTU01505432022-12-07 01:16:0737.2541-5.8157673120756Clb=-20.8m/s t=-62.0C h=1.8% p=48.1hPa 402.502 MHz Type=RS41-SGP ser=U0150543 Radiosonde
EA4EKH-11U01505432022-12-07 01:16:0337.254-5.816131022620861Clb=-20.8m/s t=-62.0C h=1.8% p=47.3hPa 402.500 MHz Type=RS41-SGP ser=U0150543 Radiosonde
CT7AUS-11U01505432022-12-07 01:15:5837.2541-5.816421202420941Clb=-20.3m/s t=-61.4C h=1.7% p=46.7hPa 402.500 MHz Type=RS41-SGP ser=U0150543 Radiosonde
EA7KDTU01505432022-12-07 01:15:4037.2547-5.818161122421321Clb=-20.5m/s t=-61.8C h=1.8% p=43.9hPa 402.502 MHz Type=RS41-SGP ser=U0150543 Radiosonde
EA4EKH-11U01505432022-12-07 01:15:3637.2548-5.818511032221420Clb=-20.6m/s t=-61.8C h=1.7% p=43.2hPa 402.500 MHz Type=RS41-SGP ser=U0150543 Radiosonde
CT7AUS-11U01505432022-12-07 01:15:3237.2548-5.81873992421484Clb=-20.6m/s t=-61.9C h=1.8% p=42.8hPa 402.500 MHz Type=RS41-SGP ser=U0150543 Radiosonde
EA7KDTU01505432022-12-07 01:15:1537.2554-5.820521263021930Clb=-20.7m/s t=-61.3C h=1.6% p=39.8hPa 402.502 MHz Type=RS41-SGP ser=U0150543 Radiosonde
EA4EKH-11U01505432022-12-07 01:15:1137.2556-5.820911273122037Clb=-21.6m/s t=-62.0C h=1.7% p=39.1hPa 402.500 MHz Type=RS41-SGP ser=U0150543 Radiosonde
CT7AUS-11U01505432022-12-07 01:15:0737.2559-5.821291212422147Clb=-21.8m/s t=-62.3C h=1.7% p=38.5hPa 402.500 MHz Type=RS41-SGP ser=U0150543 Radiosonde
EA7KDTU01505432022-12-07 01:14:4837.2565-5.822981293722584Clb=-18.9m/s t=-62.0C h=1.7% p=35.9hPa 402.502 MHz Type=RS41-SGP ser=U0150543 Radiosonde
EA4EKH-11U01505432022-12-07 01:14:4437.2568-5.823381303022675Clb=-16.4m/s t=-61.9C h=1.7% p=35.3hPa 402.500 MHz Type=RS41-SGP ser=U0150543 Radiosonde
CT7AUS-11U01505432022-12-07 01:14:4137.2569-5.823571372622725Clb=-17.2m/s t=-62.2C h=1.7% p=35.0hPa 402.500 MHz Type=RS41-SGP ser=U0150543 Radiosonde
EA7KDTU01505432022-12-07 01:14:2337.2577-5.82487851923194Clb=-23.4m/s t=-61.4C h=1.7% p=32.5hPa 402.502 MHz Type=RS41-SGP ser=U0150543 Radiosonde
EA4EKH-11U01505432022-12-07 01:14:1837.2577-5.825151021723302Clb=-21.2m/s t=-60.7C h=1.5% p=31.9hPa 402.500 MHz Type=RS41-SGP ser=U0150543 Radiosonde
CT7AUS-11U01505432022-12-07 01:14:1537.2578-5.825291211923363Clb=-20.5m/s t=-60.2C h=1.5% p=31.6hPa 402.500 MHz Type=RS41-SGP ser=U0150543 Radiosonde
EA7KDTU01505432022-12-07 01:13:5537.2583-5.82645901523884Clb=-22.9m/s t=-59.8C h=1.5% p=29.1hPa 402.502 MHz Type=RS41-SGP ser=U0150543 Radiosonde
EA4EKH-11U01505432022-12-07 01:13:5037.2582-5.82672622223996Clb=-23.3m/s t=-59.8C h=1.5% p=28.6hPa 402.500 MHz Type=RS41-SGP ser=U0150543 Radiosonde
CT7AUS-11U01505432022-12-07 01:13:4737.2582-5.82693722224066Clb=-25.0m/s t=-59.7C h=1.4% p=28.3hPa 402.500 MHz Type=RS41-SGP ser=U0150543 Radiosonde
EA7KDTU01505432022-12-07 01:13:2737.2587-5.828141213024568Clb=-20.4m/s t=-59.9C h=1.5% p=26.1hPa 402.502 MHz Type=RS41-SGP ser=U0150543 Radiosonde
EA4EKH-11U01505432022-12-07 01:13:2137.2589-5.828481052024678Clb=-20.7m/s t=-60.1C h=1.5% p=25.7hPa 402.500 MHz Type=RS41-SGP ser=U0150543 Radiosonde
CT7AUS-11U01505432022-12-07 01:13:1837.2589-5.828791093124758Clb=-21.9m/s t=-59.3C h=1.4% p=25.3hPa 402.500 MHz Type=RS41-SGP ser=U0150543 Radiosonde
EA7KDTU01505432022-12-07 01:12:5737.2596-5.830861493025258Clb=-24.0m/s t=-59.1C h=1.3% p=23.4hPa 402.502 MHz Type=RS41-SGP ser=U0150543 Radiosonde
EA4EKH-11U01505432022-12-07 01:12:5237.26-5.831151384325380Clb=-25.3m/s t=-59.5C h=1.4% p=23.0hPa 402.500 MHz Type=RS41-SGP ser=U0150543 Radiosonde
CT7AUS-11U01505432022-12-07 01:12:4837.2603-5.831561263925475Clb=-24.1m/s t=-59.4C h=1.4% p=22.6hPa 402.500 MHz Type=RS41-SGP ser=U0150543 Radiosonde
EA7KDTU01505432022-12-07 01:12:2737.2616-5.833361133125978Clb=-24.5m/s t=-60.4C h=1.4% p=20.9hPa 402.502 MHz Type=RS41-SGP ser=U0150543 Radiosonde
EA4EKH-11U01505432022-12-07 01:12:2237.2617-5.833781062426098Clb=-25.2m/s t=-60.9C h=1.5% p=20.5hPa 402.500 MHz Type=RS41-SGP ser=U0150543 Radiosonde
CT7AUS-11U01505432022-12-07 01:12:1837.2618-5.834111033126194Clb=-22.9m/s t=-61.4C h=1.6% p=20.1hPa 402.500 MHz Type=RS41-SGP ser=U0150543 Radiosonde
EA7KDTU01505432022-12-07 01:11:5537.2617-5.83562852426726Clb=-26.3m/s t=-60.7C h=1.5% p=18.5hPa 402.502 MHz Type=RS41-SGP ser=U0150543 Radiosonde
EA4EKH-11U01505432022-12-07 01:11:5037.2618-5.836121013726853Clb=-26.2m/s t=-60.7C h=1.6% p=18.1hPa 402.500 MHz Type=RS41-SGP ser=U0150543 Radiosonde
CT7AUS-11U01505432022-12-07 01:11:4837.2618-5.83663854326959Clb=-25.9m/s t=-61.0C h=1.6% p=17.9hPa 402.500 MHz Type=RS41-SGP ser=U0150543 Radiosonde
EA7KDTU01505432022-12-07 01:11:2437.2624-5.83989896127472Clb=-25.0m/s t=-58.5C h=1.4% p=16.5hPa 402.502 MHz Type=RS41-SGP ser=U0150543 Radiosonde
EA4EKH-11U01505432022-12-07 01:11:2037.2624-5.84097887227595Clb=-26.3m/s t=-57.6C h=1.3% p=16.1hPa 402.500 MHz Type=RS41-SGP ser=U0150543 Radiosonde
CT7AUS-11U01505432022-12-07 01:11:1637.2624-5.84193957827705Clb=-28.2m/s t=-57.3C h=1.3% p=15.8hPa 402.500 MHz Type=RS41-SGP ser=U0150543 Radiosonde
EA7KDTU01505432022-12-07 01:10:5437.2636-5.847341108328265Clb=-24.3m/s t=-56.8C h=1.3% p=14.5hPa 402.502 MHz Type=RS41-SGP ser=U0150543 Radiosonde
EA4EKH-11U01505432022-12-07 01:10:5037.264-5.848661109128384Clb=-26.4m/s t=-57.1C h=1.4% p=14.2hPa 402.500 MHz Type=RS41-SGP ser=U0150543 Radiosonde
CT7AUS-11U01505432022-12-07 01:10:4637.2644-5.849761126928538Clb=-30.3m/s t=-56.5C h=1.4% p=13.9hPa 402.500 MHz Type=RS41-SGP ser=U0150543 Radiosonde
EA7KDTU01505432022-12-07 01:10:2437.2653-5.85441056929223Clb=-36.8m/s t=-52.5C h=1.1% p=12.5hPa 402.502 MHz Type=RS41-SGP ser=U0150543 Radiosonde
EA4EKH-11U01505432022-12-07 01:10:1937.2656-5.85551128129413Clb=-40.7m/s t=-51.6C h=1.1% p=12.2hPa 402.500 MHz Type=RS41-SGP ser=U0150543 Radiosonde
CT7AUS-11U01505432022-12-07 01:10:1537.266-5.856471108129562Clb=-36.3m/s t=-51.2C h=1.0% p=11.9hPa 402.500 MHz Type=RS41-SGP ser=U0150543 Radiosonde
EA7KDTU01505432022-12-07 01:09:5237.2673-5.861121047030375Clb=-34.4m/s t=-47.8C h=0.9% p=10.5hPa 402.502 MHz Type=RS41-SGP ser=U0150543 Radiosonde
EA4EKH-11U01505432022-12-07 01:09:4637.2677-5.862291138530549Clb=-36.7m/s t=-46.9C h=0.8% p=10.2hPa 402.500 MHz Type=RS41-SGP ser=U0150543 Radiosonde
CT7AUS-11U01505432022-12-07 01:09:4337.2684-5.864251159130882Clb=-45.4m/s t=-46.6C h=0.7% p=9.8hPa 402.500 MHz Type=RS41-SGP ser=U0150543 Radiosonde
EA7KDTU01505432022-12-07 01:09:1937.2701-5.869531029831605Clb=-41.2m/s t=-46.6C h=0.8% p=8.7hPa 402.502 MHz Type=RS41-SGP ser=U0150543 Radiosonde
EA4EKH-11U01505432022-12-07 01:09:1337.2705-5.871291099631850Clb=-43.3m/s t=-46.2C h=0.8% p=8.4hPa 402.500 MHz Type=RS41-SGP ser=U0150543 Radiosonde
CT7AUS-11U01505432022-12-07 01:09:0937.2707-5.8721511210431978Clb=-42.1m/s t=-45.6C h=0.7% p=8.3hPa 402.500 MHz Type=RS41-SGP ser=U0150543 Radiosonde
EA4GBR-10U01505432022-12-07 01:09:0137.2715-5.8744311411932242Clb=-38.0m/s p=7.9hPa 402.500MHz Type=RS41-SGP rdzTTGOsonde
CT7ABP-10U01505432022-12-07 01:08:5337.2728-5.877811111132677Clb=-38.5m/s t=-46.1C h=0.7% p=7.4hPa 402.500 MHz Type=RS41-SGP ser=U0150543 Radiosonde
EA7KDTU01505432022-12-07 01:08:4637.2732-5.8791510711132845Clb=-42.0m/s t=-46.3C h=0.7% p=7.3hPa 402.502 MHz Type=RS41-SGP ser=U0150543 Radiosonde
EA4EKH-11U01505432022-12-07 01:08:4137.2738-5.8810810911133075Clb=-38.1m/s t=-45.9C h=0.7% p=7.0hPa 402.500 MHz Type=RS41-SGP ser=U0150543 Radiosonde
CT7AUS-11U01505432022-12-07 01:08:3737.274-5.8821710313333191Clb=-39.6m/s t=-46.0C h=0.7% p=6.9hPa 402.500 MHz Type=RS41-SGP ser=U0150543 Radiosonde
EA4GBR-10U01505432022-12-07 01:08:1937.2751-5.889199814633673Clb=-2.2m/s p=6.3hPa 402.500MHz Type=RS41-SGP rdzTTGOsonde
EA7KDTU01505432022-12-07 01:08:1437.2754-5.8913810213133652Clb=3.8m/s t=-46.8C h=0.7% p=6.3hPa 402.502 MHz Type=RS41-SGP ser=U0150543 Radiosonde
EA4EKH-11U01505432022-12-07 01:08:0937.2757-5.893789614133625Clb=4.7m/s t=-46.7C h=0.7% p=6.4hPa 402.500 MHz Type=RS41-SGP ser=U0150543 Radiosonde
CT7AUS-11U01505432022-12-07 01:08:0537.2764-5.898419514133575Clb=4.5m/s t=-47.0C h=0.8% p=6.4hPa 402.500 MHz Type=RS41-SGP ser=U0150543 Radiosonde
CT7ABP-10U01505432022-12-07 01:07:4937.2769-5.9016310613533542Clb=4.5m/s t=-47.4C h=0.8% p=6.5hPa 402.500 MHz Type=RS41-SGP ser=U0150543 Radiosonde
EA7KDTU01505432022-12-07 01:07:4237.2772-5.905019916133504Clb=5.9m/s t=-47.1C h=0.8% p=6.5hPa 402.502 MHz Type=RS41-SGP ser=U0150543 Radiosonde
EA4EKH-11U01505432022-12-07 01:07:3537.2778-5.9072711212833477Clb=4.7m/s t=-46.9C h=0.8% p=6.5hPa 402.500 MHz Type=RS41-SGP ser=U0150543 Radiosonde
CT7AUS-11U01505432022-12-07 01:07:3237.2781-5.910419715233432Clb=6.4m/s t=-46.7C h=0.8% p=6.6hPa 402.500 MHz Type=RS41-SGP ser=U0150543 Radiosonde
EA4GBR-10U01505432022-12-07 01:07:1137.279-5.915369513133355Clb=5.3m/s p=6.6hPa 402.500MHz Type=RS41-SGP rdzTTGOsonde
EA7KDTU01505432022-12-07 01:07:0637.2796-5.9178211513933318Clb=4.9m/s t=-46.5C h=0.8% p=6.7hPa 402.502 MHz Type=RS41-SGP ser=U0150543 Radiosonde
EA4EKH-11U01505432022-12-07 01:07:0037.28-5.919759412233288Clb=6.4m/s t=-46.4C h=0.8% p=6.7hPa 402.500 MHz Type=RS41-SGP ser=U0150543 Radiosonde
CT7AUS-11U01505432022-12-07 01:06:5637.2802-5.9212510612033265Clb=7.0m/s t=-46.2C h=0.7% p=6.8hPa 402.500 MHz Type=RS41-SGP ser=U0150543 Radiosonde
CT7ABP-10U01505432022-12-07 01:06:4137.2815-5.9259911012033177Clb=6.5m/s t=-46.2C h=0.8% p=6.8hPa 402.500 MHz Type=RS41-SGP ser=U0150543 Radiosonde
EA7KDTU01505432022-12-07 01:06:3237.2824-5.9290111111533117Clb=7.2m/s t=-46.0C h=0.7% p=6.9hPa 402.502 MHz Type=RS41-SGP ser=U0150543 Radiosonde
EA4EKH-11U01505432022-12-07 01:06:2637.2831-5.9306611411533083Clb=7.3m/s t=-45.8C h=0.7% p=6.9hPa 402.500 MHz Type=RS41-SGP ser=U0150543 Radiosonde
EA4GBR-10U01505432022-12-07 01:06:2537.2831-5.9306611611533083Clb=7.3m/s p=6.9hPa 402.500MHz Type=RS41-SGP rdzTTGOsonde
CT7AUS-11U01505432022-12-07 01:06:2237.2833-5.9316510510933062Clb=6.2m/s t=-45.7C h=0.7% p=7.0hPa 402.500 MHz Type=RS41-SGP ser=U0150543 Radiosonde
EA7KDTU01505432022-12-07 01:05:5837.2853-5.9392110811132906Clb=7.1m/s t=-45.7C h=0.7% p=7.2hPa 402.502 MHz Type=RS41-SGP ser=U0150543 Radiosonde
EA4EKH-11U01505432022-12-07 01:05:5237.2859-5.9409310811132873Clb=7.3m/s t=-45.9C h=0.7% p=7.2hPa 402.500 MHz Type=RS41-SGP ser=U0150543 Radiosonde
CT7AUS-11U01505432022-12-07 01:05:4837.2861-5.9418910610232852Clb=6.0m/s t=-45.9C h=0.8% p=7.2hPa 402.500 MHz Type=RS41-SGP ser=U0150543 Radiosonde
EA4GBR-10U01505432022-12-07 01:05:4037.2867-5.9437611711732812Clb=6.6m/s p=7.2hPa 402.500MHz Type=RS41-SGP rdzTTGOsonde
CT7ABP-10U01505432022-12-07 01:05:3337.2876-5.9462411410432757Clb=6.0m/s t=-45.7C h=0.7% p=7.3hPa 402.500 MHz Type=RS41-SGP ser=U0150543 Radiosonde
EA7KDTU01505432022-12-07 01:05:2337.2885-5.94912011332697Clb=6.6m/s t=-45.7C h=0.8% p=7.3hPa 402.502 MHz Type=RS41-SGP ser=U0150543 Radiosonde
EA4EKH-11U01505432022-12-07 01:05:1737.2892-5.9504711510032665Clb=6.7m/s t=-45.6C h=0.7% p=7.3hPa 402.500 MHz Type=RS41-SGP ser=U0150543 Radiosonde
CT7AUS-11U01505432022-12-07 01:05:1337.2897-5.9519611811532633Clb=6.5m/s t=-45.5C h=0.7% p=7.4hPa 402.500 MHz Type=RS41-SGP ser=U0150543 Radiosonde
EA4GBR-10U01505432022-12-07 01:04:5237.292-5.9567111610732534Clb=5.8m/s p=7.5hPa 402.500MHz Type=RS41-SGP rdzTTGOsonde
EA7KDTU01505432022-12-07 01:04:4937.2927-5.9581212811132505Clb=5.3m/s t=-45.2C h=0.7% p=7.6hPa 402.502 MHz Type=RS41-SGP ser=U0150543 Radiosonde
EA4EKH-11U01505432022-12-07 01:04:4337.2935-5.9595711711132477Clb=5.4m/s t=-45.1C h=0.7% p=7.6hPa 402.500 MHz Type=RS41-SGP ser=U0150543 Radiosonde
CT7AUS-11U01505432022-12-07 01:04:3937.294-5.9608412011732455Clb=5.8m/s t=-45.0C h=0.7% p=7.6hPa 402.500 MHz Type=RS41-SGP ser=U0150543 Radiosonde
EA4GBR-10U01505432022-12-07 01:04:2737.2952-5.9632412011532412Clb=5.6m/s p=7.7hPa 402.500MHz Type=RS41-SGP rdzTTGOsonde
CT7ABP-10U01505432022-12-07 01:04:2537.2957-5.9642212012432396Clb=4.8m/s t=-44.8C h=0.7% p=7.7hPa 402.500 MHz Type=RS41-SGP ser=U0150543 Radiosonde
EA7KDTU01505432022-12-07 01:04:1437.2972-5.9677111912632343Clb=4.5m/s t=-44.7C h=0.7% p=7.8hPa 402.502 MHz Type=RS41-SGP ser=U0150543 Radiosonde
EA4EKH-11U01505432022-12-07 01:04:0837.2978-5.9694311411132319Clb=4.1m/s t=-44.9C h=0.7% p=7.8hPa 402.500 MHz Type=RS41-SGP ser=U0150543 Radiosonde
CT7AUS-11U01505432022-12-07 01:04:0537.2984-5.9706512312032301Clb=4.2m/s t=-44.9C h=0.7% p=7.8hPa 402.500 MHz Type=RS41-SGP ser=U0150543 Radiosonde
EA7KDTU01505432022-12-07 01:03:4237.3011-5.9779411811132204Clb=4.3m/s t=-44.7C h=0.7% p=7.9hPa 402.502 MHz Type=RS41-SGP ser=U0150543 Radiosonde
EA4EKH-11U01505432022-12-07 01:03:3637.3018-5.979611511732181Clb=4.4m/s t=-44.8C h=0.7% p=8.0hPa 402.500 MHz Type=RS41-SGP ser=U0150543 Radiosonde
CT7AUS-11U01505432022-12-07 01:03:3337.3023-5.9808511910932165Clb=4.1m/s t=-44.9C h=0.7% p=8.0hPa 402.500 MHz Type=RS41-SGP ser=U0150543 Radiosonde
CT7ABP-10U01505432022-12-07 01:03:2337.3034-5.984041139432120Clb=4.0m/s t=-45.3C h=0.7% p=8.0hPa 402.500 MHz Type=RS41-SGP ser=U0150543 Radiosonde
EA7KDTU01505432022-12-07 01:03:1037.3045-5.987921118332067Clb=4.9m/s t=-45.7C h=0.7% p=8.1hPa 402.502 MHz Type=RS41-SGP ser=U0150543 Radiosonde
EA4EKH-11U01505432022-12-07 01:03:0537.3051-5.989311411932044Clb=5.4m/s t=-45.9C h=0.7% p=8.1hPa 402.500 MHz Type=RS41-SGP ser=U0150543 Radiosonde
CT7AUS-11U01505432022-12-07 01:03:0237.3056-5.9910810811332018Clb=4.9m/s t=-46.0C h=0.7% p=8.1hPa 402.500 MHz Type=RS41-SGP ser=U0150543 Radiosonde
EA7KDTU01505432022-12-07 01:02:3937.3073-5.997291108931908Clb=5.4m/s t=-46.9C h=0.8% p=8.3hPa 402.502 MHz Type=RS41-SGP ser=U0150543 Radiosonde
EA4GBR-10U01505432022-12-07 01:02:3537.3076-5.9981211110231891Clb=5.3m/s p=8.3hPa 402.500MHz Type=RS41-SGP rdzTTGOsonde
EA4EKH-11U01505432022-12-07 01:02:3437.3078-5.9987510710731881Clb=5.2m/s t=-47.2C h=0.8% p=8.3hPa 402.500 MHz Type=RS41-SGP ser=U0150543 Radiosonde
CT7AUS-11U01505432022-12-07 01:02:3237.3081-6.00086909131840Clb=6.5m/s t=-47.7C h=0.8% p=8.4hPa 402.500 MHz Type=RS41-SGP ser=U0150543 Radiosonde
CT7ABP-10U01505432022-12-07 01:02:2237.3083-6.002531149831807Clb=5.9m/s t=-47.7C h=0.8% p=8.4hPa 402.500 MHz Type=RS41-SGP ser=U0150543 Radiosonde
EA4GBR-10U01505432022-12-07 01:02:1237.3089-6.00521998531756Clb=5.3m/s 402.500MHz Type=RS41-SGP rdzTTGOsonde
EA7KDTU01505432022-12-07 01:02:0837.309-6.0063310010031733Clb=6.2m/s t=-47.7C h=0.9% p=8.5hPa 402.502 MHz Type=RS41-SGP ser=U0150543 Radiosonde
EA4EKH-11U01505432022-12-07 01:02:0337.3094-6.008231059631696Clb=5.6m/s t=-47.6C h=0.8% p=8.5hPa 402.500 MHz Type=RS41-SGP ser=U0150543 Radiosonde
CT7AUS-11U01505432022-12-07 01:02:0037.3096-6.009419810031673Clb=6.2m/s t=-47.5C h=0.8% p=8.5hPa 402.500 MHz Type=RS41-SGP ser=U0150543 Radiosonde
EA4GBR-10U01505432022-12-07 01:01:5037.31-6.0115910810731632Clb=6.6m/s 402.500MHz Type=RS41-SGP rdzTTGOsonde
EA7KDTU01505432022-12-07 01:01:3837.3109-6.0158910611731547Clb=6.3m/s t=-47.0C h=0.8% p=8.7hPa 402.502 MHz Type=RS41-SGP ser=U0150543 Radiosonde
EA4EKH-11U01505432022-12-07 01:01:3237.3115-6.017761079631509Clb=6.0m/s t=-46.9C h=0.8% p=8.8hPa 402.500 MHz Type=RS41-SGP ser=U0150543 Radiosonde
CT7AUS-11U01505432022-12-07 01:01:2937.3119-6.019510810631473Clb=5.4m/s t=-46.8C h=0.8% p=8.8hPa 402.500 MHz Type=RS41-SGP ser=U0150543 Radiosonde
CT7ABP-10U01505432022-12-07 01:01:2137.313-6.02311099831402Clb=6.2m/s t=-47.0C h=0.8% p=8.9hPa 402.500 MHz Type=RS41-SGP ser=U0150543 Radiosonde
EA4GBR-10U01505432022-12-07 01:01:1037.3133-6.0243211210731379Clb=6.5m/s 402.500MHz Type=RS41-SGP rdzTTGOsonde
EA7KDTU01505432022-12-07 01:01:0737.3137-6.0256311312231355Clb=6.0m/s t=-47.8C h=0.9% p=9.0hPa 402.502 MHz Type=RS41-SGP ser=U0150543 Radiosonde
EA4EKH-11U01505432022-12-07 01:01:0237.3144-6.0277611310931316Clb=6.7m/s t=-47.7C h=0.8% p=9.0hPa 402.500 MHz Type=RS41-SGP ser=U0150543 Radiosonde
CT7AUS-11U01505432022-12-07 01:00:5737.3148-6.0286911310931300Clb=5.9m/s t=-47.6C h=0.8% p=9.1hPa 402.500 MHz Type=RS41-SGP ser=U0150543 Radiosonde
EA4GBR-10U01505432022-12-07 01:00:5437.3156-6.0310811611331258Clb=6.0m/s 402.500MHz Type=RS41-SGP rdzTTGOsonde
EA4EKH-11U01505432022-12-07 01:00:5337.3179-6.0375212310231134Clb=5.2m/s t=-47.8C h=0.8% p=9.3hPa 402.500 MHz Type=RS41-SGP ser=U0150543 Radiosonde
EA4EKH-11U01505432022-12-07 01:00:5237.3216-6.04621218530972Clb=4.1m/s t=-48.2C h=0.9% p=9.5hPa 402.500 MHz Type=RS41-SGP ser=U0150543 Radiosonde
EA7KDTU01505432022-12-07 01:00:5137.324-6.052641117830851Clb=4.5m/s t=-48.1C h=0.9% p=9.7hPa 402.502 MHz Type=RS41-SGP ser=U0150543 Radiosonde
EA4EKH-11U01505432022-12-07 01:00:5037.3244-6.0542510810230823Clb=4.2m/s t=-48.2C h=0.8% p=9.7hPa 402.500 MHz Type=RS41-SGP ser=U0150543 Radiosonde
EA7KDTU01505432022-12-07 01:00:4937.3263-6.06074987230711Clb=4.0m/s t=-48.3C h=0.8% p=9.9hPa 402.502 MHz Type=RS41-SGP ser=U0150543 Radiosonde
EA4GBR-10U01505432022-12-07 01:00:4837.3275-6.06713966930589Clb=4.2m/s 402.500MHz Type=RS41 rdzTTGOsonde
EA7KDTU01505432022-12-07 01:00:4737.3275-6.06837898730564Clb=5.0m/s t=-48.6C h=0.8% p=10.1hPa 402.502 MHz Type=RS41-SGP ser=U0150543 Radiosonde
EA7KDTU01505432022-12-07 01:00:4137.3281-6.076181098330411Clb=5.3m/s t=-49.8C h=0.9% p=10.4hPa 402.502 MHz Type=RS41-SGP ser=U0150543 Radiosonde
EA4EKH-11U01505432022-12-07 01:00:4037.3284-6.077731007030381Clb=5.8m/s t=-50.1C h=0.9% p=10.4hPa 402.500 MHz Type=RS41-SGP ser=U0150543 Radiosonde
CT7AUS-11U01505432022-12-07 01:00:3937.3285-6.078321066330364Clb=4.8m/s t=-50.3C h=0.9% p=10.5hPa 402.500 MHz Type=RS41-SGP ser=U0150543 Radiosonde
EA4GBR-10U01505432022-12-07 01:00:3837.3287-6.079211088530344Clb=4.6m/s 402.500MHz Type=RS41 rdzTTGOsonde
EA7KDTU01505432022-12-07 01:00:3337.3302-6.083251197430242Clb=5.6m/s t=-51.1C h=0.9% p=10.6hPa 402.502 MHz Type=RS41-SGP ser=U0150543 Radiosonde
EA4EKH-11U01505432022-12-07 01:00:3237.3306-6.084131115930215Clb=5.7m/s t=-51.3C h=0.9% p=10.6hPa 402.500 MHz Type=RS41-SGP ser=U0150543 Radiosonde
CT7AUS-11U01505432022-12-07 01:00:3137.3308-6.084851116530194Clb=6.2m/s t=-51.5C h=1.0% p=10.7hPa 402.500 MHz Type=RS41-SGP ser=U0150543 Radiosonde
EA7KDTU01505432022-12-07 01:00:2237.3323-6.08941115730067Clb=5.3m/s t=-52.2C h=1.0% p=10.9hPa 402.502 MHz Type=RS41-SGP ser=U0150543 Radiosonde
EA4EKH-11U01505432022-12-07 01:00:2137.3326-6.090151225730038Clb=5.0m/s t=-52.0C h=1.1% p=11.0hPa 402.500 MHz Type=RS41-SGP ser=U0150543 Radiosonde
EA7KDTU01505432022-12-07 01:00:2037.3342-6.095481036729878Clb=7.1m/s t=-51.1C h=1.0% p=11.2hPa 402.502 MHz Type=RS41-SGP ser=U0150543 Radiosonde
EA7KDTU01505432022-12-07 01:00:1937.3357-6.102751058329686Clb=7.0m/s t=-50.9C h=0.9% p=11.6hPa 402.502 MHz Type=RS41-SGP ser=U0150543 Radiosonde
EA7KDTU01505432022-12-07 01:00:1237.3381-6.110551088529489Clb=7.4m/s t=-51.6C h=1.0% p=11.9hPa 402.502 MHz Type=RS41-SGP ser=U0150543 Radiosonde
EA4EKH-11U01505432022-12-07 01:00:0937.3384-6.111781088029459Clb=6.3m/s t=-52.0C h=1.0% p=12.0hPa 402.500 MHz Type=RS41-SGP ser=U0150543 Radiosonde
CT7ABP-10U01505432022-12-07 01:00:0537.3388-6.11291237829427Clb=6.1m/s t=-273.0C h=-1.0% p=-1.0hPa 402.499 MHz Type=RS41 ser=U0150543 Radiosonde
EA7KDTU01505432022-12-07 00:59:4037.3406-6.117391127829300Clb=5.2m/s t=-52.3C h=1.0% p=12.3hPa 402.502 MHz Type=RS41-SGP ser=U0150543 Radiosonde
EA4EKH-11U01505432022-12-07 00:59:3337.3409-6.118471087429271Clb=6.6m/s t=-52.8C h=1.0% p=12.3hPa 402.500 MHz Type=RS41-SGP ser=U0150543 Radiosonde
CT7AUS-11U01505432022-12-07 00:59:3037.3412-6.11971088529241Clb=5.5m/s t=-52.9C h=1.0% p=12.4hPa 402.500 MHz Type=RS41-SGP ser=U0150543 Radiosonde
EA7KDTU01505432022-12-07 00:58:5937.3425-6.124561097029123Clb=4.5m/s t=-54.2C h=1.1% p=12.7hPa 402.502 MHz Type=RS41-SGP ser=U0150543 Radiosonde
EA4EKH-11U01505432022-12-07 00:58:5037.343-6.125761176929089Clb=6.2m/s t=-54.1C h=1.1% p=12.7hPa 402.500 MHz Type=RS41-SGP ser=U0150543 Radiosonde
CT7AUS-11U01505432022-12-07 00:58:4637.3432-6.126331126129072Clb=5.2m/s t=-54.0C h=1.1% p=12.7hPa 402.500 MHz Type=RS41-SGP ser=U0150543 Radiosonde
EA7KDTU01505432022-12-07 00:58:1537.3449-6.130881137828951Clb=5.0m/s t=-54.0C h=1.0% p=13.0hPa 402.502 MHz Type=RS41-SGP ser=U0150543 Radiosonde
EA4EKH-11U01505432022-12-07 00:58:0837.3454-6.132321048528918Clb=6.5m/s t=-54.2C h=0.9% p=13.1hPa 402.500 MHz Type=RS41-SGP ser=U0150543 Radiosonde
CT7AUS-11U01505432022-12-07 00:58:0437.3456-6.13313988728902Clb=4.0m/s t=-54.6C h=1.0% p=13.1hPa 402.500 MHz Type=RS41-SGP ser=U0150543 Radiosonde
EA7KDTU01505432022-12-07 00:57:3537.3467-6.138461087028780Clb=5.9m/s t=-57.0C h=1.2% p=13.3hPa 402.502 MHz Type=RS41-SGP ser=U0150543 Radiosonde
EA4EKH-11U01505432022-12-07 00:57:2737.347-6.139661066528746Clb=5.8m/s t=-56.9C h=1.2% p=13.4hPa 402.500 MHz Type=RS41-SGP ser=U0150543 Radiosonde
CT7AUS-11U01505432022-12-07 00:57:2237.3472-6.140291077228729Clb=4.7m/s t=-56.8C h=1.2% p=13.4hPa 402.500 MHz Type=RS41-SGP ser=U0150543 Radiosonde
EA7KDTU01505432022-12-07 00:56:5337.3488-6.145081158328605Clb=6.4m/s t=-57.3C h=1.2% p=13.7hPa 402.502 MHz Type=RS41-SGP ser=U0150543 Radiosonde
EA4EKH-11U01505432022-12-07 00:56:4637.3493-6.146691119128570Clb=5.0m/s t=-57.4C h=1.2% p=13.8hPa 402.500 MHz Type=RS41-SGP ser=U0150543 Radiosonde
CT7AUS-11U01505432022-12-07 00:56:4137.3495-6.147481068528553Clb=6.3m/s t=-57.4C h=1.2% p=13.8hPa 402.500 MHz Type=RS41-SGP ser=U0150543 Radiosonde
EA7KDTU01505432022-12-07 00:56:1137.3513-6.152741148128422Clb=6.6m/s t=-57.7C h=1.2% p=14.1hPa 402.502 MHz Type=RS41-SGP ser=U0150543 Radiosonde
EA4EKH-11U01505432022-12-07 00:56:0337.3518-6.154121137628387Clb=5.0m/s t=-57.4C h=1.2% p=14.2hPa 402.500 MHz Type=RS41-SGP ser=U0150543 Radiosonde
CT7AUS-11U01505432022-12-07 00:55:5937.3522-6.155641118928351Clb=6.8m/s t=-57.2C h=1.2% p=14.2hPa 402.500 MHz Type=RS41-SGP ser=U0150543 Radiosonde
EA7KDTU01505432022-12-07 00:55:2937.3539-6.16071229328238Clb=4.6m/s t=-58.3C h=1.2% p=14.5hPa 402.502 MHz Type=RS41-SGP ser=U0150543 Radiosonde
EA4EKH-11U01505432022-12-07 00:55:2137.3544-6.162241028328203Clb=6.6m/s t=-58.8C h=1.3% p=14.7hPa 402.500 MHz Type=RS41-SGP ser=U0150543 Radiosonde
CT7AUS-11U01505432022-12-07 00:55:1737.3546-6.162991068328185Clb=5.8m/s t=-58.9C h=1.3% p=14.7hPa 402.500 MHz Type=RS41-SGP ser=U0150543 Radiosonde
EA7KDTU01505432022-12-07 00:54:4937.3561-6.168291038128060Clb=6.6m/s t=-58.8C h=1.3% p=14.9hPa 402.502 MHz Type=RS41-SGP ser=U0150543 Radiosonde
EA4EKH-11U01505432022-12-07 00:54:4137.3563-6.169731028028025Clb=5.0m/s t=-58.5C h=1.3% p=15.0hPa 402.500 MHz Type=RS41-SGP ser=U0150543 Radiosonde
CT7AUS-11U01505432022-12-07 00:54:3637.3565-6.170441108028008Clb=4.4m/s t=-58.4C h=1.3% p=15.1hPa 402.500 MHz Type=RS41-SGP ser=U0150543 Radiosonde
EA7KDTU01505432022-12-07 00:54:0637.3573-6.17566937227884Clb=5.9m/s t=-57.7C h=1.2% p=15.4hPa 402.502 MHz Type=RS41-SGP ser=U0150543 Radiosonde
EA4EKH-11U01505432022-12-07 00:53:5737.3573-6.177937227852Clb=4.5m/s t=-57.6C h=1.2% p=15.4hPa 402.500 MHz Type=RS41-SGP ser=U0150543 Radiosonde
CT7AUS-11U01505432022-12-07 00:53:5237.3575-6.17811967227825Clb=5.7m/s t=-57.6C h=1.2% p=15.5hPa 402.500 MHz Type=RS41-SGP ser=U0150543 Radiosonde
EA7KDTU01505432022-12-07 00:53:2237.3572-6.18264807227720Clb=5.3m/s t=-57.5C h=1.2% p=15.8hPa 402.502 MHz Type=RS41-SGP ser=U0150543 Radiosonde
EA4EKH-11U01505432022-12-07 00:53:1337.357-6.1838796127689Clb=3.9m/s t=-57.5C h=1.2% p=15.8hPa 402.500 MHz Type=RS41-SGP ser=U0150543 Radiosonde
CT7AUS-11U01505432022-12-07 00:53:0937.357-6.18441896927673Clb=5.4m/s t=-57.4C h=1.2% p=15.9hPa 402.500 MHz Type=RS41-SGP ser=U0150543 Radiosonde
EA7KDTU01505432022-12-07 00:52:3737.3565-6.18884705927557Clb=5.3m/s t=-58.2C h=1.2% p=16.2hPa 402.502 MHz Type=RS41-SGP ser=U0150543 Radiosonde
EA4EKH-11U01505432022-12-07 00:52:2837.3563-6.18976815227526Clb=5.8m/s t=-58.9C h=1.2% p=16.3hPa 402.500 MHz Type=RS41-SGP ser=U0150543 Radiosonde
CT7AUS-11U01505432022-12-07 00:52:2237.3562-6.19032846727509Clb=4.6m/s t=-59.2C h=1.3% p=16.3hPa 402.500 MHz Type=RS41-SGP ser=U0150543 Radiosonde
EA7KDTU01505432022-12-07 00:51:4837.3558-6.19386973327392Clb=4.7m/s t=-60.2C h=1.3% p=16.6hPa 402.502 MHz Type=RS41-SGP ser=U0150543 Radiosonde
EA4EKH-11U01505432022-12-07 00:51:4037.3559-6.194641005027360Clb=6.3m/s t=-60.5C h=1.4% p=16.7hPa 402.500 MHz Type=RS41-SGP ser=U0150543 Radiosonde
CT7AUS-11U01505432022-12-07 00:51:3537.3559-6.195111055227343Clb=5.3m/s t=-60.6C h=1.4% p=16.7hPa 402.500 MHz Type=RS41-SGP ser=U0150543 Radiosonde
EA7KDTU01505432022-12-07 00:51:0237.3569-6.19791244427221Clb=4.5m/s t=-60.4C h=1.4% p=17.1hPa 402.502 MHz Type=RS41-SGP ser=U0150543 Radiosonde
EA4EKH-11U01505432022-12-07 00:50:5437.3571-6.198531073327188Clb=6.4m/s t=-60.2C h=1.4% p=17.2hPa 402.500 MHz Type=RS41-SGP ser=U0150543 Radiosonde
CT7AUS-11U01505432022-12-07 00:50:5037.3572-6.198871074127172Clb=5.9m/s t=-60.1C h=1.4% p=17.2hPa 402.500 MHz Type=RS41-SGP ser=U0150543 Radiosonde
CT1EDGU01505432022-12-07 00:50:2737.3575-6.201111063727065Clb=6.4m/s t=-59.9C h=1.3% p=17.5hPa 402.501 MHz Type=RS41-SGP ser=U0150543 Radiosonde
EA7KDTU01505432022-12-07 00:50:1637.3576-6.201471014327048Clb=6.5m/s t=-60.2C h=1.4% p=17.5hPa 402.502 MHz Type=RS41-SGP ser=U0150543 Radiosonde
EA4EKH-11U01505432022-12-07 00:50:0837.3575-6.20223723527014Clb=5.3m/s t=-60.1C h=1.4% p=17.6hPa 402.500 MHz Type=RS41-SGP ser=U0150543 Radiosonde
CT7AUS-11U01505432022-12-07 00:50:0337.3574-6.20256733926997Clb=5.2m/s t=-60.0C h=1.4% p=17.7hPa 402.500 MHz Type=RS41-SGP ser=U0150543 Radiosonde
EA7KDTU01505432022-12-07 00:49:3137.3573-6.20493943326872Clb=5.4m/s t=-60.1C h=1.4% p=18.0hPa 402.502 MHz Type=RS41-SGP ser=U0150543 Radiosonde
EA4EKH-11U01505432022-12-07 00:49:2337.3573-6.20557953326839Clb=6.6m/s t=-59.9C h=1.4% p=18.1hPa 402.500 MHz Type=RS41-SGP ser=U0150543 Radiosonde
CT7AUS-11U01505432022-12-07 00:49:1837.3573-6.20589793126823Clb=5.1m/s t=-59.8C h=1.3% p=18.2hPa 402.500 MHz Type=RS41-SGP ser=U0150543 Radiosonde
EA7KDTU01505432022-12-07 00:48:4537.3569-6.20773762626701Clb=4.6m/s t=-59.9C h=1.4% p=18.5hPa 402.502 MHz Type=RS41-SGP ser=U0150543 Radiosonde
EA4EKH-11U01505432022-12-07 00:48:3637.3568-6.20804631926667Clb=6.1m/s t=-59.7C h=1.3% p=18.6hPa 402.500 MHz Type=RS41-SGP ser=U0150543 Radiosonde
CT7AUS-11U01505432022-12-07 00:48:3037.3567-6.20822602026650Clb=6.1m/s t=-59.7C h=1.4% p=18.7hPa 402.500 MHz Type=RS41-SGP ser=U0150543 Radiosonde
CT1EDGU01505432022-12-07 00:48:1137.3565-6.20894431326567Clb=5.8m/s t=-59.5C h=1.3% p=18.9hPa 402.501 MHz Type=RS41-SGP ser=U0150543 Radiosonde
EA7KDTU01505432022-12-07 00:47:5837.3566-6.2092137426524Clb=4.2m/s t=-59.5C h=1.3% p=19.1hPa 402.502 MHz Type=RS41-SGP ser=U0150543 Radiosonde
EA4EKH-11U01505432022-12-07 00:47:5037.3565-6.2093451326498Clb=4.5m/s t=-59.5C h=1.4% p=19.2hPa 402.500 MHz Type=RS41-SGP ser=U0150543 Radiosonde
CT7AUS-11U01505432022-12-07 00:47:4537.3565-6.20939125926476Clb=6.3m/s t=-59.5C h=1.3% p=19.2hPa 402.500 MHz Type=RS41-SGP ser=U0150543 Radiosonde
CT1EDGU01505432022-12-07 00:47:2337.3563-6.20989841526393Clb=5.5m/s t=-59.5C h=1.4% p=19.5hPa 402.501 MHz Type=RS41-SGP ser=U0150543 Radiosonde
EA7KDTU01505432022-12-07 00:47:0937.3563-6.21018681926360Clb=6.5m/s t=-59.3C h=1.3% p=19.6hPa 402.502 MHz Type=RS41-SGP ser=U0150543 Radiosonde
EA4EKH-11U01505432022-12-07 00:47:0037.3561-6.21053651726329Clb=4.9m/s t=-59.4C h=1.3% p=19.6hPa 402.500 MHz Type=RS41-SGP ser=U0150543 Radiosonde
CT7AUS-11U01505432022-12-07 00:46:5337.3561-6.210811092626307Clb=3.8m/s t=-59.5C h=1.3% p=19.8hPa 402.500 MHz Type=RS41-SGP ser=U0150543 Radiosonde
CT1EDGU01505432022-12-07 00:46:3337.356-6.211971132826228Clb=4.4m/s t=-59.9C h=1.3% p=20.0hPa 402.501 MHz Type=RS41-SGP ser=U0150543 Radiosonde
EA7KDTU01505432022-12-07 00:46:2137.356-6.2124782426192Clb=4.1m/s t=-60.2C h=1.4% p=20.1hPa 402.502 MHz Type=RS41-SGP ser=U0150543 Radiosonde
EA4EKH-11U01505432022-12-07 00:46:1137.356-6.21286803026161Clb=5.3m/s t=-60.3C h=1.4% p=20.2hPa 402.500 MHz Type=RS41-SGP ser=U0150543 Radiosonde
CT7AUS-11U01505432022-12-07 00:46:0637.356-6.21321962226140Clb=4.7m/s t=-60.3C h=1.4% p=20.3hPa 402.500 MHz Type=RS41-SGP ser=U0150543 Radiosonde
CT1EDGU01505432022-12-07 00:45:4637.356-6.21408922226072Clb=6.1m/s t=-60.0C h=1.4% p=20.5hPa 402.501 MHz Type=RS41-SGP ser=U0150543 Radiosonde
EA7KDTU01505432022-12-07 00:45:3337.3561-6.214631021526030Clb=4.5m/s t=-59.8C h=1.4% p=20.6hPa 402.502 MHz Type=RS41-SGP ser=U0150543 Radiosonde
EA4EKH-11U01505432022-12-07 00:45:2337.3561-6.215011071925999Clb=5.6m/s t=-59.7C h=1.4% p=20.8hPa 402.500 MHz Type=RS41-SGP ser=U0150543 Radiosonde
CT7AUS-11U01505432022-12-07 00:45:1837.3562-6.215191122425985Clb=5.6m/s t=-59.5C h=1.4% p=20.8hPa 402.500 MHz Type=RS41-SGP ser=U0150543 Radiosonde
CT1EDGU01505432022-12-07 00:44:5837.3566-6.216261212825902Clb=4.3m/s t=-58.9C h=1.3% p=21.1hPa 402.501 MHz Type=RS41-SGP ser=U0150543 Radiosonde
EA7KDTU01505432022-12-07 00:44:4837.3569-6.216681232825870Clb=4.7m/s t=-58.7C h=1.3% p=21.2hPa 402.502 MHz Type=RS41-SGP ser=U0150543 Radiosonde
EA4EKH-11U01505432022-12-07 00:44:3737.3571-6.217021202225840Clb=5.6m/s t=-58.5C h=1.3% p=21.3hPa 402.500 MHz Type=RS41-SGP ser=U0150543 Radiosonde
CT7AUS-11U01505432022-12-07 00:44:3337.3572-6.217251232825825Clb=5.9m/s t=-58.4C h=1.3% p=21.3hPa 402.500 MHz Type=RS41-SGP ser=U0150543 Radiosonde
CT1EDGU01505432022-12-07 00:44:1337.3577-6.218321243325755Clb=4.4m/s t=-58.4C h=1.3% p=21.6hPa 402.501 MHz Type=RS41-SGP ser=U0150543 Radiosonde
EA7KDTU01505432022-12-07 00:44:0237.3581-6.218961272425714Clb=6.0m/s t=-58.2C h=1.2% p=21.7hPa 402.502 MHz Type=RS41-SGP ser=U0150543 Radiosonde
EA4EKH-11U01505432022-12-07 00:43:5637.3584-6.219351323725685Clb=4.9m/s t=-58.3C h=1.2% p=21.8hPa 402.500 MHz Type=RS41-SGP ser=U0150543 Radiosonde
CT7AUS-11U01505432022-12-07 00:43:5237.3586-6.219581453725668Clb=5.0m/s t=-58.4C h=1.3% p=21.8hPa 402.500 MHz Type=RS41-SGP ser=U0150543 Radiosonde
CT1EDGU01505432022-12-07 00:43:3937.3599-6.220521534825586Clb=4.9m/s t=-58.4C h=1.3% p=22.1hPa 402.501 MHz Type=RS41-SGP ser=U0150543 Radiosonde
EA7KDTU01505432022-12-07 00:43:3137.3603-6.220851502425554Clb=3.9m/s t=-58.3C h=1.2% p=22.3hPa 402.502 MHz Type=RS41-SGP ser=U0150543 Radiosonde
EA4EKH-11U01505432022-12-07 00:43:2537.3608-6.221241504825524Clb=4.8m/s t=-58.1C h=1.3% p=22.4hPa 402.500 MHz Type=RS41-SGP ser=U0150543 Radiosonde
CT7AUS-11U01505432022-12-07 00:43:2137.3612-6.221591424425504Clb=4.3m/s t=-58.1C h=1.2% p=22.4hPa 402.500 MHz Type=RS41-SGP ser=U0150543 Radiosonde
CT1EDGU01505432022-12-07 00:43:0837.3626-6.222831454825422Clb=6.1m/s t=-58.7C h=1.3% p=22.7hPa 402.501 MHz Type=RS41-SGP ser=U0150543 Radiosonde
EA7KDTU01505432022-12-07 00:42:5937.363-6.223211434125396Clb=4.4m/s t=-59.0C h=1.3% p=22.8hPa 402.502 MHz Type=RS41-SGP ser=U0150543 Radiosonde
EA4EKH-11U01505432022-12-07 00:42:5337.3638-6.22361594825359Clb=5.1m/s t=-59.3C h=1.3% p=23.0hPa 402.500 MHz Type=RS41-SGP ser=U0150543 Radiosonde
CT7AUS-11U01505432022-12-07 00:42:5037.3641-6.223731633925344Clb=4.0m/s t=-59.3C h=1.3% p=23.0hPa 402.500 MHz Type=RS41-SGP ser=U0150543 Radiosonde
CT1EDGU01505432022-12-07 00:42:4037.3658-6.224921493725240Clb=5.1m/s t=-59.3C h=1.3% p=23.4hPa 402.501 MHz Type=RS41-SGP ser=U0150543 Radiosonde
EA7KDTU01505432022-12-07 00:42:3237.3659-6.224981513525236Clb=4.3m/s t=-59.3C h=1.3% p=23.4hPa 402.502 MHz Type=RS41-SGP ser=U0150543 Radiosonde
EA4EKH-11U01505432022-12-07 00:42:2537.3663-6.225421363725205Clb=6.1m/s t=-59.6C h=1.3% p=23.5hPa 402.500 MHz Type=RS41-SGP ser=U0150543 Radiosonde
CT7AUS-11U01505432022-12-07 00:42:2237.3666-6.225681403025183Clb=5.7m/s t=-59.6C h=1.4% p=23.6hPa 402.500 MHz Type=RS41-SGP ser=U0150543 Radiosonde
CT1EDGU01505432022-12-07 00:42:0537.3675-6.226641242825103Clb=4.5m/s t=-59.2C h=1.3% p=23.9hPa 402.501 MHz Type=RS41-SGP ser=U0150543 Radiosonde
EA7KDTU01505432022-12-07 00:41:5737.3677-6.2271303125072Clb=5.2m/s t=-58.9C h=1.3% p=24.0hPa 402.502 MHz Type=RS41-SGP ser=U0150543 Radiosonde
EA7KDTU01505432022-12-07 00:41:5537.3694-6.229971294124906Clb=4.6m/s t=-58.0C h=1.2% p=24.6hPa 402.502 MHz Type=RS41-SGP ser=U0150543 Radiosonde
EA7KDTU01505432022-12-07 00:41:5037.3712-6.232671352424744Clb=5.5m/s t=-58.6C h=1.3% p=25.4hPa 402.502 MHz Type=RS41-SGP ser=U0150543 Radiosonde
EA4EKH-11U01505432022-12-07 00:41:4937.3714-6.232931622024711Clb=4.9m/s t=-58.6C h=1.3% p=25.5hPa 402.500 MHz Type=RS41-SGP ser=U0150543 Radiosonde
CT7AUS-11U01505432022-12-07 00:41:4837.3717-6.233121533524685Clb=5.9m/s t=-58.5C h=1.2% p=25.6hPa 402.500 MHz Type=RS41-SGP ser=U0150543 Radiosonde
CT1EDGU01505432022-12-07 00:41:4437.3725-6.233861443124610Clb=5.1m/s t=-59.8C h=1.4% p=25.9hPa 402.501 MHz Type=RS41-SGP ser=U0150543 Radiosonde
EA7KDTU01505432022-12-07 00:41:4237.3728-6.234361233324579Clb=5.6m/s t=-59.9C h=1.4% p=26.0hPa 402.502 MHz Type=RS41-SGP ser=U0150543 Radiosonde
EA4EKH-11U01505432022-12-07 00:41:4037.373-6.23481233324547Clb=5.1m/s t=-59.7C h=1.3% p=26.1hPa 402.500 MHz Type=RS41-SGP ser=U0150543 Radiosonde
CT1EDGU01505432022-12-07 00:41:3437.3746-6.236171583324424Clb=6.5m/s t=-60.2C h=1.5% p=26.6hPa 402.501 MHz Type=RS41-SGP ser=U0150543 Radiosonde
EA4EKH-11U01505432022-12-07 00:41:3337.3752-6.23641703324381Clb=5.0m/s t=-60.2C h=1.4% p=26.8hPa 402.500 MHz Type=RS41-SGP ser=U0150543 Radiosonde
EA7KDTU01505432022-12-07 00:41:3237.3766-6.237731203124252Clb=4.8m/s t=-60.6C h=1.4% p=27.4hPa 402.502 MHz Type=RS41-SGP ser=U0150543 Radiosonde
CT1EDGU01505432022-12-07 00:41:3137.3771-6.238961042224135Clb=5.4m/s t=-60.9C h=1.5% p=27.9hPa 402.501 MHz Type=RS41-SGP ser=U0150543 Radiosonde
EA7KDTU01505432022-12-07 00:41:3037.3773-6.23951481524089Clb=4.5m/s t=-60.7C h=1.4% p=28.1hPa 402.502 MHz Type=RS41-SGP ser=U0150543 Radiosonde
EA7KDTU01505432022-12-07 00:41:2937.3786-6.241411363023937Clb=5.2m/s t=-61.5C h=1.6% p=28.8hPa 402.502 MHz Type=RS41-SGP ser=U0150543 Radiosonde
EA4EKH-11U01505432022-12-07 00:41:2837.3789-6.241881212423908Clb=4.4m/s t=-61.5C h=1.6% p=28.9hPa 402.500 MHz Type=RS41-SGP ser=U0150543 Radiosonde
CT1EDGU01505432022-12-07 00:41:2737.3796-6.242691371723823Clb=4.5m/s t=-61.4C h=1.5% p=29.3hPa 402.501 MHz Type=RS41-SGP ser=U0150543 Radiosonde
EA4EKH-11U01505432022-12-07 00:41:2637.3801-6.243221501923757Clb=4.9m/s t=-61.3C h=1.5% p=29.6hPa 402.500 MHz Type=RS41-SGP ser=U0150543 Radiosonde
EA7KDTU01505432022-12-07 00:41:2537.381-6.244011271923623Clb=4.7m/s t=-61.0C h=1.5% p=30.3hPa 402.502 MHz Type=RS41-SGP ser=U0150543 Radiosonde
CT1EDGU01505432022-12-07 00:41:2437.3818-6.244871272023506Clb=4.4m/s t=-60.9C h=1.5% p=30.9hPa 402.501 MHz Type=RS41-SGP ser=U0150543 Radiosonde
EA7KDTU01505432022-12-07 00:41:2337.3821-6.245521141523465Clb=5.7m/s t=-61.5C h=1.5% p=31.1hPa 402.502 MHz Type=RS41-SGP ser=U0150543 Radiosonde
EA7KDTU01505432022-12-07 00:41:2137.3825-6.247341101723302Clb=5.1m/s t=-62.6C h=1.7% p=31.9hPa 402.502 MHz Type=RS41-SGP ser=U0150543 Radiosonde
EA4EKH-11U01505432022-12-07 00:41:1637.3827-6.247691192623270Clb=5.0m/s t=-62.7C h=1.6% p=32.0hPa 402.500 MHz Type=RS41-SGP ser=U0150543 Radiosonde
CT7AUS-11U01505432022-12-07 00:41:1337.3828-6.247981132623246Clb=6.3m/s t=-62.7C h=1.7% p=32.1hPa 402.500 MHz Type=RS41-SGP ser=U0150543 Radiosonde
CT1EDGU01505432022-12-07 00:40:5437.3834-6.249091172023148Clb=6.4m/s t=-62.6C h=1.7% p=32.7hPa 402.501 MHz Type=RS41-SGP ser=U0150543 Radiosonde
EA7KDTU01505432022-12-07 00:40:4237.3835-6.249281272223132Clb=6.2m/s t=-62.5C h=1.7% p=32.8hPa 402.502 MHz Type=RS41-SGP ser=U0150543 Radiosonde
EA4EKH-11U01505432022-12-07 00:40:3337.3836-6.249561141723099Clb=5.0m/s t=-62.4C h=1.7% p=32.9hPa 402.500 MHz Type=RS41-SGP ser=U0150543 Radiosonde
CT7AUS-11U01505432022-12-07 00:40:2737.3837-6.249721192023083Clb=5.6m/s t=-62.3C h=1.7% p=33.0hPa 402.500 MHz Type=RS41-SGP ser=U0150543 Radiosonde
CT1EDGU01505432022-12-07 00:40:0437.3842-6.250711092423005Clb=6.6m/s t=-61.8C h=1.6% p=33.5hPa 402.501 MHz Type=RS41-SGP ser=U0150543 Radiosonde
EA7KDTU01505432022-12-07 00:39:5337.3845-6.251311243122963Clb=5.2m/s t=-61.9C h=1.6% p=33.7hPa 402.502 MHz Type=RS41-SGP ser=U0150543 Radiosonde
EA4EKH-11U01505432022-12-07 00:39:4537.3847-6.251711271922931Clb=6.3m/s t=-62.0C h=1.7% p=33.8hPa 402.500 MHz Type=RS41-SGP ser=U0150543 Radiosonde
CT7AUS-11U01505432022-12-07 00:39:4037.3848-6.251841391922916Clb=5.0m/s t=-62.0C h=1.6% p=33.9hPa 402.500 MHz Type=RS41-SGP ser=U0150543 Radiosonde
CT1EDGU01505432022-12-07 00:39:1837.3855-6.252531361722840Clb=5.7m/s t=-62.4C h=1.7% p=34.3hPa 402.501 MHz Type=RS41-SGP ser=U0150543 Radiosonde
EA7KDTU01505432022-12-07 00:39:0737.3858-6.253111283122798Clb=5.2m/s t=-62.3C h=1.7% p=34.6hPa 402.502 MHz Type=RS41-SGP ser=U0150543 Radiosonde
EA4EKH-11U01505432022-12-07 00:38:5937.3861-6.253491412622766Clb=4.9m/s t=-62.2C h=1.7% p=34.7hPa 402.500 MHz Type=RS41-SGP ser=U0150543 Radiosonde
CT7AUS-11U01505432022-12-07 00:38:5437.3862-6.253681283122749Clb=4.9m/s t=-62.1C h=1.7% p=34.8hPa 402.500 MHz Type=RS41-SGP ser=U0150543 Radiosonde
CT1EDGU01505432022-12-07 00:38:3237.3868-6.25471202822678Clb=4.2m/s t=-61.7C h=1.7% p=35.2hPa 402.501 MHz Type=RS41-SGP ser=U0150543 Radiosonde
EA7KDTU01505432022-12-07 00:38:2037.3872-6.255461173322639Clb=5.6m/s t=-61.4C h=1.6% p=35.4hPa 402.502 MHz Type=RS41-SGP ser=U0150543 Radiosonde
EA4EKH-11U01505432022-12-07 00:38:1037.3874-6.255941122822608Clb=4.6m/s t=-61.4C h=1.6% p=35.6hPa 402.500 MHz Type=RS41-SGP ser=U0150543 Radiosonde
CT7AUS-11U01505432022-12-07 00:38:0537.3875-6.256311133722588Clb=5.6m/s t=-61.4C h=1.6% p=35.8hPa 402.500 MHz Type=RS41-SGP ser=U0150543 Radiosonde
CT1EDGU01505432022-12-07 00:37:4237.388-6.257981083322497Clb=5.6m/s t=-61.8C h=1.6% p=36.3hPa 402.501 MHz Type=RS41-SGP ser=U0150543 Radiosonde
EA7KDTU01505432022-12-07 00:37:2837.388-6.258311023322483Clb=5.4m/s t=-61.7C h=1.6% p=36.4hPa 402.502 MHz Type=RS41-SGP ser=U0150543 Radiosonde
EA4EKH-11U01505432022-12-07 00:37:1837.3881-6.258831042422454Clb=5.1m/s t=-61.6C h=1.5% p=36.5hPa 402.500 MHz Type=RS41-SGP ser=U0150543 Radiosonde
CT7AUS-11U01505432022-12-07 00:37:1337.3882-6.259081153122441Clb=4.9m/s t=-61.8C h=1.6% p=36.6hPa 402.500 MHz Type=RS41-SGP ser=U0150543 Radiosonde
CT1EDGU01505432022-12-07 00:36:4837.3884-6.260151052622375Clb=5.5m/s t=-62.6C h=1.7% p=37.0hPa 402.501 MHz Type=RS41-SGP ser=U0150543 Radiosonde
EA7KDTU01505432022-12-07 00:36:3537.3885-6.26084832222338Clb=3.8m/s t=-62.7C h=1.7% p=37.2hPa 402.502 MHz Type=RS41-SGP ser=U0150543 Radiosonde
EA4EKH-11U01505432022-12-07 00:36:2637.3885-6.2611981322310Clb=3.7m/s t=-62.9C h=1.7% p=37.4hPa 402.500 MHz Type=RS41-SGP ser=U0150543 Radiosonde
CT7AUS-11U01505432022-12-07 00:36:2137.3885-6.261241201922296Clb=3.9m/s t=-62.9C h=1.7% p=37.5hPa 402.500 MHz Type=RS41-SGP ser=U0150543 Radiosonde
CT1EDGU01505432022-12-07 00:35:5737.3889-6.262241213022221Clb=4.1m/s t=-62.8C h=1.8% p=37.9hPa 402.501 MHz Type=RS41-SGP ser=U0150543 Radiosonde
EA7KDTU01505432022-12-07 00:35:4537.389-6.262611052022193Clb=5.1m/s t=-62.7C h=1.7% p=38.1hPa 402.502 MHz Type=RS41-SGP ser=U0150543 Radiosonde
EA4EKH-11U01505432022-12-07 00:35:3737.3891-6.262991102822164Clb=5.0m/s t=-62.8C h=1.7% p=38.3hPa 402.500 MHz Type=RS41-SGP ser=U0150543 Radiosonde
CT7AUS-11U01505432022-12-07 00:35:3037.3892-6.263241052622149Clb=5.0m/s t=-62.9C h=1.8% p=38.4hPa 402.500 MHz Type=RS41-SGP ser=U0150543 Radiosonde
CT1EDGU01505432022-12-07 00:35:0837.3895-6.264251052222080Clb=5.1m/s t=-62.4C h=1.7% p=38.8hPa 402.501 MHz Type=RS41-SGP ser=U0150543 Radiosonde
EA7KDTU01505432022-12-07 00:34:5637.3897-6.264711312422045Clb=5.5m/s t=-62.2C h=1.7% p=39.0hPa 402.502 MHz Type=RS41-SGP ser=U0150543 Radiosonde
EA4EKH-11U01505432022-12-07 00:34:4837.3899-6.265091162622018Clb=5.6m/s t=-62.1C h=1.7% p=39.2hPa 402.500 MHz Type=RS41-SGP ser=U0150543 Radiosonde
CT7AUS-11U01505432022-12-07 00:34:4137.39-6.265431062421999Clb=5.2m/s t=-61.9C h=1.7% p=39.3hPa 402.500 MHz Type=RS41-SGP ser=U0150543 Radiosonde
CT1EDGU01505432022-12-07 00:34:2037.3903-6.266571062421929Clb=4.0m/s t=-61.7C h=1.7% p=39.8hPa 402.501 MHz Type=RS41-SGP ser=U0150543 Radiosonde
EA7KDTU01505432022-12-07 00:34:0637.3905-6.26711042821900Clb=4.9m/s t=-61.8C h=1.6% p=40.0hPa 402.502 MHz Type=RS41-SGP ser=U0150543 Radiosonde
EA4EKH-11U01505432022-12-07 00:33:5937.3905-6.26766932621872Clb=5.3m/s t=-62.0C h=1.7% p=40.1hPa 402.500 MHz Type=RS41-SGP ser=U0150543 Radiosonde
CT7AUS-11U01505432022-12-07 00:33:5037.3906-6.268161062621844Clb=5.2m/s t=-62.1C h=1.7% p=40.3hPa 402.500 MHz Type=RS41-SGP ser=U0150543 Radiosonde
CT1EDGU01505432022-12-07 00:33:2737.3906-6.26927891521777Clb=4.8m/s t=-62.1C h=1.7% p=40.8hPa 402.501 MHz Type=RS41-SGP ser=U0150543 Radiosonde
EA7KDTU01505432022-12-07 00:33:1437.3906-6.2696802421754Clb=5.2m/s t=-62.0C h=1.7% p=40.9hPa 402.502 MHz Type=RS41-SGP ser=U0150543 Radiosonde
EA4EKH-11U01505432022-12-07 00:33:0437.3904-6.27007662821726Clb=3.9m/s t=-61.9C h=1.7% p=41.1hPa 402.500 MHz Type=RS41-SGP ser=U0150543 Radiosonde
CT7AUS-11U01505432022-12-07 00:32:5837.3904-6.27052931721687Clb=4.3m/s t=-61.9C h=1.7% p=41.3hPa 402.500 MHz Type=RS41-SGP ser=U0150543 Radiosonde
CT1EDGU01505432022-12-07 00:32:3437.3902-6.27119721921646Clb=5.1m/s t=-62.1C h=1.7% p=41.6hPa 402.501 MHz Type=RS41-SGP ser=U0150543 Radiosonde
EA7KDTU01505432022-12-07 00:32:1837.3902-6.271691042221603Clb=4.5m/s t=-62.3C h=1.7% p=41.9hPa 402.502 MHz Type=RS41-SGP ser=U0150543 Radiosonde
EA4EKH-11U01505432022-12-07 00:32:0737.3903-6.27199981721578Clb=5.5m/s t=-62.5C h=1.7% p=42.1hPa 402.500 MHz Type=RS41-SGP ser=U0150543 Radiosonde
CT7AUS-11U01505432022-12-07 00:31:5937.3903-6.27223811521559Clb=4.9m/s t=-62.6C h=1.7% p=42.2hPa 402.500 MHz Type=RS41-SGP ser=U0150543 Radiosonde
CT1EDGU01505432022-12-07 00:31:3637.3902-6.27298591921485Clb=5.4m/s t=-62.8C h=1.8% p=42.7hPa 402.501 MHz Type=RS41-SGP ser=U0150543 Radiosonde
EA7KDTU01505432022-12-07 00:31:2337.3902-6.273421062021449Clb=4.1m/s t=-62.7C h=1.8% p=42.9hPa 402.502 MHz Type=RS41-SGP ser=U0150543 Radiosonde
EA4EKH-11U01505432022-12-07 00:31:1437.3902-6.27366751721427Clb=5.0m/s t=-62.6C h=1.7% p=43.1hPa 402.500 MHz Type=RS41-SGP ser=U0150543 Radiosonde
CT7AUS-11U01505432022-12-07 00:31:0737.3902-6.274031042221403Clb=5.1m/s t=-62.5C h=1.7% p=43.3hPa 402.500 MHz Type=RS41-SGP ser=U0150543 Radiosonde
CT1EDGU01505432022-12-07 00:30:4537.3904-6.27491901921334Clb=5.0m/s t=-62.3C h=1.7% p=43.8hPa 402.501 MHz Type=RS41-SGP ser=U0150543 Radiosonde
EA7KDTU01505432022-12-07 00:30:3337.3904-6.275281222221300Clb=5.4m/s t=-62.2C h=1.7% p=44.0hPa 402.502 MHz Type=RS41-SGP ser=U0150543 Radiosonde
EA4EKH-11U01505432022-12-07 00:30:2437.3906-6.275651092621275Clb=4.4m/s t=-62.3C h=1.8% p=44.2hPa 402.500 MHz Type=RS41-SGP ser=U0150543 Radiosonde
CT7AUS-11U01505432022-12-07 00:30:1737.3906-6.27595952021256Clb=5.7m/s t=-62.3C h=1.7% p=44.3hPa 402.500 MHz Type=RS41-SGP ser=U0150543 Radiosonde
CT1EDGU01505432022-12-07 00:29:5337.3909-6.276891173121185Clb=4.6m/s t=-62.2C h=-1.0% p=44.8hPa 402.501 MHz Type=RS41-SGP ser=U0150543 Radiosonde
EA7KDTU01505432022-12-07 00:29:4137.3911-6.277431092021147Clb=3.8m/s t=-62.0C h=1.8% p=45.1hPa 402.502 MHz Type=RS41-SGP ser=U0150543 Radiosonde
EA4EKH-11U01505432022-12-07 00:29:3137.3912-6.277851063121123Clb=4.5m/s t=-61.9C h=1.8% p=45.3hPa 402.500 MHz Type=RS41-SGP ser=U0150543 Radiosonde
CT7AUS-11U01505432022-12-07 00:29:2637.3912-6.278211042421103Clb=4.9m/s t=-61.8C h=1.8% p=45.4hPa 402.500 MHz Type=RS41-SGP ser=U0150543 Radiosonde
CT1EDGU01505432022-12-07 00:29:0137.3915-6.279421021121020Clb=3.6m/s t=-61.8C h=-1.0% p=46.0hPa 402.501 MHz Type=RS41 ser=U0150543 Radiosonde
EA7KDTU01505432022-12-07 00:28:4837.3916-6.279561261921003Clb=3.8m/s t=-61.7C h=1.8% p=46.1hPa 402.502 MHz Type=RS41-SGP ser=U0150543 Radiosonde
EA4EKH-11U01505432022-12-07 00:28:3937.3917-6.279911042220980Clb=5.0m/s t=-61.8C h=1.7% p=46.3hPa 402.500 MHz Type=RS41-SGP ser=U0150543 Radiosonde
CT7AUS-11U01505432022-12-07 00:28:3337.3918-6.280151041720961Clb=4.5m/s t=-61.8C h=1.7% p=46.5hPa 402.500 MHz Type=RS41-SGP ser=U0150543 Radiosonde
CT1EDGU01505432022-12-07 00:28:0937.3918-6.28114962220893Clb=5.2m/s t=-62.1C h=-1.0% p=-1.0hPa 402.501 MHz Type=RS41 ser=U0150543 Radiosonde
EA7KDTU01505432022-12-07 00:27:5837.3917-6.28156642420860Clb=4.2m/s t=-62.4C h=1.9% p=47.3hPa 402.502 MHz Type=RS41-SGP ser=U0150543 Radiosonde
EA4EKH-11U01505432022-12-07 00:27:5437.3915-6.28199723120838Clb=5.6m/s t=-62.4C h=1.8% p=47.4hPa 402.500 MHz Type=RS41-SGP ser=U0150543 Radiosonde
CT7AUS-11U01505432022-12-07 00:27:4937.3913-6.28274542620796Clb=5.2m/s t=-62.6C h=1.9% p=47.7hPa 402.500 MHz Type=RS41-SGP ser=U0150543 Radiosonde
CT7ABP-10U01505432022-12-07 00:27:4637.3908-6.28427641920696Clb=5.4m/s t=-62.1C h=1.8% p=48.5hPa 402.500 MHz Type=RS41-SGP ser=U0150543 Radiosonde
EA7KDTU01505432022-12-07 00:27:4237.3857-6.30145721119579Clb=5.4m/s t=-64.3C h=2.2% p=58.1hPa 402.502 MHz Type=RS41-SGP ser=U0150543 Radiosonde
CT7AUS-11U01505432022-12-07 00:27:4137.3858-6.30185901519536Clb=4.4m/s t=-64.7C h=2.3% p=58.5hPa 402.500 MHz Type=RS41-SGP ser=U0150543 Radiosonde
EA7KDTU01505432022-12-07 00:27:2337.386-6.302751342219446Clb=4.6m/s t=-64.1C h=2.3% p=59.4hPa 402.502 MHz Type=RS41-SGP ser=U0150543 Radiosonde
EA4EKH-11U01505432022-12-07 00:27:1737.3862-6.303071172019419Clb=5.6m/s t=-63.9C h=2.2% p=59.6hPa 402.500 MHz Type=RS41-SGP ser=U0150543 Radiosonde
CT7ABP-10U01505432022-12-07 00:27:1537.3863-6.303131122019414Clb=4.8m/s t=-63.9C h=2.3% p=59.8hPa 402.500 MHz Type=RS41-SGP ser=U0150543 Radiosonde
CT7AUS-11U01505432022-12-07 00:27:1237.3863-6.30331161719401Clb=3.9m/s t=-63.9C h=2.3% p=59.9hPa 402.500 MHz Type=RS41-SGP ser=U0150543 Radiosonde
EA7KDTU01505432022-12-07 00:27:0137.3869-6.304811153319308Clb=4.0m/s t=-63.3C h=2.2% p=60.7hPa 402.502 MHz Type=RS41-SGP ser=U0150543 Radiosonde
EA4EKH-11U01505432022-12-07 00:27:0037.3871-6.305361143119282Clb=3.9m/s t=-63.2C h=2.2% p=61.0hPa 402.500 MHz Type=RS41-SGP ser=U0150543 Radiosonde
EA7KDTU01505432022-12-07 00:26:5937.3874-6.30772983019169Clb=4.0m/s t=-63.0C h=2.3% p=62.1hPa 402.502 MHz Type=RS41-SGP ser=U0150543 Radiosonde
EA4EKH-11U01505432022-12-07 00:26:5837.3874-6.3083893919148Clb=5.3m/s t=-63.0C h=2.4% p=62.4hPa 402.500 MHz Type=RS41-SGP ser=U0150543 Radiosonde
EA7KDTU01505432022-12-07 00:26:5737.3871-6.31106793319031Clb=4.8m/s t=-62.8C h=2.3% p=63.5hPa 402.502 MHz Type=RS41-SGP ser=U0150543 Radiosonde
CT7AUS-11U01505432022-12-07 00:26:5637.387-6.31194842618992Clb=3.4m/s t=-63.2C h=2.5% p=64.0hPa 402.500 MHz Type=RS41-SGP ser=U0150543 Radiosonde
EA7KDTU01505432022-12-07 00:26:3237.3868-6.31374942818897Clb=4.5m/s t=-63.4C h=2.4% p=65.0hPa 402.502 MHz Type=RS41-SGP ser=U0150543 Radiosonde
CT7ABP-10U01505432022-12-07 00:26:2437.3868-6.31406792018880Clb=3.9m/s t=-63.9C h=2.5% p=65.2hPa 402.500 MHz Type=RS41-SGP ser=U0150543 Radiosonde
EA4EKH-11U01505432022-12-07 00:26:2337.3868-6.31413812018876Clb=3.9m/s t=-64.0C h=2.5% p=65.1hPa 402.500 MHz Type=RS41-SGP ser=U0150543 Radiosonde
CT7AUS-11U01505432022-12-07 00:26:1837.3868-6.31441132018860Clb=4.6m/s t=-64.2C h=2.6% p=65.3hPa 402.500 MHz Type=RS41-SGP ser=U0150543 Radiosonde
EA7KDTU01505432022-12-07 00:25:3937.3873-6.316141013318767Clb=3.5m/s t=-64.2C h=2.7% p=66.3hPa 402.502 MHz Type=RS41-SGP ser=U0150543 Radiosonde
EA4EKH-11U01505432022-12-07 00:25:3137.3873-6.31659852818745Clb=3.6m/s t=-64.2C h=2.7% p=66.5hPa 402.500 MHz Type=RS41-SGP ser=U0150543 Radiosonde
CT7AUS-11U01505432022-12-07 00:25:2537.3873-6.31713883318721Clb=3.6m/s t=-64.2C h=2.6% p=66.8hPa 402.500 MHz Type=RS41-SGP ser=U0150543 Radiosonde
EA7KDTU01505432022-12-07 00:24:4837.387-6.31898693018638Clb=5.4m/s t=-64.7C h=2.9% p=67.7hPa 402.502 MHz Type=RS41-SGP ser=U0150543 Radiosonde
CT7ABP-10U01505432022-12-07 00:24:4237.3869-6.31931643018620Clb=4.5m/s t=-64.7C h=2.9% p=67.9hPa 402.500 MHz Type=RS41-SGP ser=U0150543 Radiosonde
EA4EKH-11U01505432022-12-07 00:24:3837.3868-6.31949733018611Clb=5.4m/s t=-64.6C h=2.9% p=68.0hPa 402.500 MHz Type=RS41-SGP ser=U0150543 Radiosonde
CT7AUS-11U01505432022-12-07 00:24:3337.3868-6.32006822618585Clb=4.3m/s t=-64.5C h=2.9% p=68.3hPa 402.500 MHz Type=RS41-SGP ser=U0150543 Radiosonde
EA7KDTU01505432022-12-07 00:23:5437.3866-6.32158822418503Clb=4.4m/s t=-64.1C h=2.9% p=69.2hPa 402.502 MHz Type=RS41-SGP ser=U0150543 Radiosonde
EA4EKH-11U01505432022-12-07 00:23:4437.3866-6.32193822218481Clb=5.0m/s t=-64.2C h=3.0% p=69.4hPa 402.500 MHz Type=RS41-SGP ser=U0150543 Radiosonde
CT7AUS-11U01505432022-12-07 00:23:3937.3866-6.32218971718464Clb=3.8m/s t=-64.3C h=2.9% p=69.7hPa 402.500 MHz Type=RS41-SGP ser=U0150543 Radiosonde
EA7KDTU01505432022-12-07 00:22:5837.3867-6.323561002618371Clb=3.6m/s t=-65.3C h=3.2% p=70.7hPa 402.502 MHz Type=RS41-SGP ser=U0150543 Radiosonde
CT7ABP-10U01505432022-12-07 00:22:5337.3868-6.323781022018359Clb=3.7m/s t=-65.2C h=3.2% p=70.9hPa 402.500 MHz Type=RS41-SGP ser=U0150543 Radiosonde
EA4EKH-11U01505432022-12-07 00:22:4837.3868-6.32392952218350Clb=4.0m/s t=-65.3C h=3.2% p=71.0hPa 402.500 MHz Type=RS41-SGP ser=U0150543 Radiosonde
CT7AUS-11U01505432022-12-07 00:22:4437.3868-6.32431932418324Clb=4.2m/s t=-65.4C h=3.3% p=71.3hPa 402.500 MHz Type=RS41-SGP ser=U0150543 Radiosonde
EA7KDTU01505432022-12-07 00:22:0337.3868-6.32568692418236Clb=4.0m/s t=-65.3C h=3.3% p=72.4hPa 402.502 MHz Type=RS41-SGP ser=U0150543 Radiosonde
EA4EKH-11U01505432022-12-07 00:21:5537.3867-6.32609842218213Clb=3.8m/s t=-65.4C h=3.4% p=72.6hPa 402.500 MHz Type=RS41-SGP ser=U0150543 Radiosonde
CT7AUS-11U01505432022-12-07 00:21:4837.3867-6.32647772218192Clb=5.0m/s t=-65.6C h=3.4% p=72.8hPa 402.500 MHz Type=RS41-SGP ser=U0150543 Radiosonde
EA7KDTU01505432022-12-07 00:21:1237.3863-6.32793692818099Clb=4.3m/s t=-65.4C h=3.4% p=73.9hPa 402.502 MHz Type=RS41-SGP ser=U0150543 Radiosonde
CT7ABP-10U01505432022-12-07 00:21:0837.3862-6.32811823018090Clb=5.5m/s t=-65.4C h=3.4% p=74.1hPa 402.500 MHz Type=RS41-SGP ser=U0150543 Radiosonde
EA4EKH-11U01505432022-12-07 00:21:0337.3862-6.32849863018073Clb=4.1m/s t=-65.7C h=3.5% p=74.3hPa 402.500 MHz Type=RS41-SGP ser=U0150543 Radiosonde
CT7AUS-11U01505432022-12-07 00:20:5537.3862-6.32872752018059Clb=4.1m/s t=-65.7C h=3.4% p=74.5hPa 402.500 MHz Type=RS41-SGP ser=U0150543 Radiosonde
EA7KDTU01505432022-12-07 00:20:1937.3861-6.330561033517960Clb=4.1m/s t=-66.0C h=3.5% p=75.7hPa 402.502 MHz Type=RS41-SGP ser=U0150543 Radiosonde
EA4EKH-11U01505432022-12-07 00:20:1137.3862-6.33122933717934Clb=3.5m/s t=-66.0C h=3.5% p=76.0hPa 402.500 MHz Type=RS41-SGP ser=U0150543 Radiosonde
EA7KDTU01505432022-12-07 00:19:2537.3863-6.334151003917822Clb=3.8m/s t=-65.9C h=3.5% p=77.5hPa 402.502 MHz Type=RS41-SGP ser=U0150543 Radiosonde
CT7ABP-10U01505432022-12-07 00:19:2437.3863-6.334271004117817Clb=5.1m/s t=-65.8C h=3.5% p=77.5hPa 402.500 MHz Type=RS41-SGP ser=U0150543 Radiosonde
EA4EKH-11U01505432022-12-07 00:19:1737.3864-6.33494964417794Clb=5.5m/s t=-65.8C h=3.5% p=77.7hPa 402.500 MHz Type=RS41-SGP ser=U0150543 Radiosonde
CT7AUS-11U01505432022-12-07 00:19:1037.3865-6.33684914617735Clb=4.5m/s t=-65.7C h=3.5% p=78.5hPa 402.500 MHz Type=RS41-SGP ser=U0150543 Radiosonde
EA7KDTU01505432022-12-07 00:18:3337.3865-6.33847963917680Clb=4.3m/s t=-65.5C h=3.5% p=79.2hPa 402.502 MHz Type=RS41-SGP ser=U0150543 Radiosonde
EA4EKH-11U01505432022-12-07 00:18:2337.3865-6.33942884317648Clb=4.7m/s t=-65.2C h=3.4% p=79.6hPa 402.500 MHz Type=RS41-SGP ser=U0150543 Radiosonde
CT7AUS-11U01505432022-12-07 00:18:1637.3865-6.33995933717630Clb=4.7m/s t=-65.1C h=3.5% p=79.9hPa 402.500 MHz Type=RS41-SGP ser=U0150543 Radiosonde
CT7ABP-10U01505432022-12-07 00:17:3937.3866-6.342391003717543Clb=3.7m/s t=-65.0C h=3.3% p=81.0hPa 402.500 MHz Type=RS41-SGP ser=U0150543 Radiosonde
EA7KDTU01505432022-12-07 00:17:3837.3866-6.342391003717543Clb=3.7m/s t=-65.0C h=3.3% p=81.0hPa 402.502 MHz Type=RS41-SGP ser=U0150543 Radiosonde
EA4EKH-11U01505432022-12-07 00:17:2837.3867-6.34315904317514Clb=5.4m/s t=-65.2C h=3.4% p=81.4hPa 402.500 MHz Type=RS41-SGP ser=U0150543 Radiosonde
CT7AUS-11U01505432022-12-07 00:17:2137.3867-6.34383933917492Clb=5.0m/s t=-65.2C h=-1.0% p=81.7hPa 402.500 MHz Type=RS41-SGP ser=U0150543 Radiosonde
EA7KDTU01505432022-12-07 00:16:4337.3867-6.34631903917406Clb=4.8m/s t=-65.3C h=3.4% p=82.9hPa 402.502 MHz Type=RS41-SGP ser=U0150543 Radiosonde
EA4EKH-11U01505432022-12-07 00:16:3337.3867-6.34726884417376Clb=4.8m/s t=-65.2C h=3.4% p=83.3hPa 402.500 MHz Type=RS41-SGP ser=U0150543 Radiosonde
CT7AUS-11U01505432022-12-07 00:16:2637.3867-6.34766863917364Clb=4.1m/s t=-65.1C h=-1.0% p=83.4hPa 402.500 MHz Type=RS41-SGP ser=U0150543 Radiosonde
CT7ABP-10U01505432022-12-07 00:15:5237.3865-6.35065805217280Clb=5.0m/s t=-65.2C h=3.4% p=84.6hPa 402.500 MHz Type=RS41-SGP ser=U0150543 Radiosonde
EA7KDTU01505432022-12-07 00:15:5037.3864-6.35082855417275Clb=5.0m/s t=-65.2C h=3.4% p=84.7hPa 402.502 MHz Type=RS41-SGP ser=U0150543 Radiosonde
EA4EKH-11U01505432022-12-07 00:15:4037.3864-6.35184905617249Clb=5.3m/s t=-65.2C h=3.3% p=85.0hPa 402.500 MHz Type=RS41-SGP ser=U0150543 Radiosonde
CT7AUS-11U01505432022-12-07 00:15:3337.3864-6.35286855217222Clb=4.3m/s t=-65.1C h=-1.0% p=85.4hPa 402.500 MHz Type=RS41-SGP ser=U0150543 Radiosonde
EA7KDTU01505432022-12-07 00:14:5837.3861-6.35602814617139Clb=3.7m/s t=-64.9C h=3.4% p=86.6hPa 402.502 MHz Type=RS41-SGP ser=U0150543 Radiosonde
EA4EKH-11U01505432022-12-07 00:14:4637.386-6.35695835017112Clb=4.4m/s t=-64.8C h=3.4% p=86.9hPa 402.500 MHz Type=RS41-SGP ser=U0150543 Radiosonde
CT7AUS-11U01505432022-12-07 00:14:4137.3859-6.35756844417094Clb=5.1m/s t=-273.0C h=-1.0% p=87.2hPa 402.500 MHz Type=RS41-SGP ser=U0150543 Radiosonde
CT7ABP-10U01505432022-12-07 00:14:0937.3855-6.36027854417010Clb=5.2m/s t=-64.2C h=3.3% p=-1.0hPa 402.500 MHz Type=RS41-SGP ser=U0150543 Radiosonde
EA7KDTU01505432022-12-07 00:14:0437.3855-6.36069814316997Clb=5.2m/s t=-64.1C h=3.2% p=88.6hPa 402.502 MHz Type=RS41-SGP ser=U0150543 Radiosonde
EA4EKH-11U01505432022-12-07 00:13:5437.3854-6.36136734316974Clb=4.6m/s t=-64.0C h=3.2% p=88.9hPa 402.500 MHz Type=RS41-SGP ser=U0150543 Radiosonde
CT7AUS-11U01505432022-12-07 00:13:4837.3849-6.36317694616915Clb=4.7m/s t=-273.0C h=-1.0% p=89.8hPa 402.500 MHz Type=RS41-SGP ser=U0150543 Radiosonde
EA7KDTU01505432022-12-07 00:13:1137.3844-6.36474674816864Clb=4.9m/s t=-64.0C h=3.4% p=90.6hPa 402.502 MHz Type=RS41-SGP ser=U0150543 Radiosonde
EA4EKH-11U01505432022-12-07 00:13:0137.3841-6.36561695016837Clb=5.1m/s t=-64.0C h=3.3% p=90.9hPa 402.500 MHz Type=RS41-SGP ser=U0150543 Radiosonde
CT7AUS-11U01505432022-12-07 00:12:5537.384-6.36618754416818Clb=5.2m/s t=-273.0C h=-1.0% p=-1.0hPa 402.500 MHz Type=RS41-SGP ser=U0150543 Radiosonde
EA4EKH-11U01505432022-12-07 00:12:3637.3834-6.36967833716697Clb=4.5m/s t=-64.1C h=3.4% p=93.0hPa 402.500 MHz Type=RS41-SGP ser=U0150543 Radiosonde
EA7KDTU01505432022-12-07 00:11:5637.3832-6.37307844316584Clb=4.0m/s t=-64.1C h=3.6% p=94.7hPa 402.502 MHz Type=RS41-SGP ser=U0150543 Radiosonde
EA4EKH-11U01505432022-12-07 00:11:5137.3832-6.37375954116562Clb=4.4m/s t=-64.1C h=3.5% p=95.1hPa 402.500 MHz Type=RS41-SGP ser=U0150543 Radiosonde
CT7AUS-11U01505432022-12-07 00:11:4637.3833-6.37444904316540Clb=4.8m/s t=-273.0C h=-1.0% p=-1.0hPa 402.500 MHz Type=RS41-SGP ser=U0150543 Radiosonde
CT7ABP-10U01505432022-12-07 00:11:3337.3833-6.37661933716470Clb=4.8m/s t=-273.0C h=-1.0% p=-1.0hPa 402.500 MHz Type=RS41 ser=U0150543 Radiosonde
EA7KDTU01505432022-12-07 00:11:2837.3832-6.37724844316450Clb=3.8m/s t=-64.4C h=3.6% p=96.8hPa 402.502 MHz Type=RS41-SGP ser=U0150543 Radiosonde
EA4EKH-11U01505432022-12-07 00:11:2237.3832-6.3779954416427Clb=4.3m/s t=-64.7C h=3.5% p=97.2hPa 402.500 MHz Type=RS41-SGP ser=U0150543 Radiosonde
EA7KDTU01505432022-12-07 00:10:5637.3828-6.38166764816313Clb=4.5m/s t=-64.7C h=3.7% p=99.0hPa 402.502 MHz Type=RS41-SGP ser=U0150543 Radiosonde
EA4EKH-11U01505432022-12-07 00:10:5437.3827-6.3824785016289Clb=4.5m/s t=-64.5C h=3.6% p=99.4hPa 402.500 MHz Type=RS41-SGP ser=U0150543 Radiosonde
EA7KDTU01505432022-12-07 00:10:4537.3822-6.38596874416172Clb=4.0m/s t=-64.3C h=3.5% p=101.3hPa 402.502 MHz Type=RS41-SGP ser=U0150543 Radiosonde
EA4EKH-11U01505432022-12-07 00:10:4337.3822-6.38679884116143Clb=4.9m/s t=-64.2C h=3.5% p=101.9hPa 402.500 MHz Type=RS41-SGP ser=U0150543 Radiosonde
CT7AUS-11U01505432022-12-07 00:10:4237.3822-6.38784904816114Clb=3.3m/s t=-273.0C h=-1.0% p=-1.0hPa 402.500 MHz Type=RS41-SGP ser=U0150543 Radiosonde
WINDFERU01505432022-12-07 00:10:3137.3822-6.38915894816075Clb=3.9m/s t=-64.4C h=3.5% p=103.0hPa 402.505 MHz Type=RS41-SGP ser=U0150543 Radiosonde
EA7KDTU01505432022-12-07 00:10:2337.3821-6.39051864816033Clb=5.8m/s t=-64.4C h=3.4% p=103.7hPa 402.502 MHz Type=RS41-SGP ser=U0150543 Radiosonde
EA4EKH-11U01505432022-12-07 00:10:1837.382-6.39174824615996Clb=4.0m/s t=-64.5C h=3.5% p=104.3hPa 402.500 MHz Type=RS41-SGP ser=U0150543 Radiosonde
CT7AUS-11U01505432022-12-07 00:10:1537.3819-6.39264805015969Clb=5.4m/s t=-273.0C h=-1.0% p=-1.0hPa 402.500 MHz Type=RS41-SGP ser=U0150543 Radiosonde
WINDFERU01505432022-12-07 00:10:0137.3817-6.39389715015932Clb=4.4m/s t=-64.4C h=3.5% p=105.4hPa 402.505 MHz Type=RS41-SGP ser=U0150543 Radiosonde
EA4EKH-11U01505432022-12-07 00:10:0037.3811-6.39613765015867Clb=4.0m/s t=-64.0C h=3.3% p=106.6hPa 402.500 MHz Type=RS41-SGP ser=U0150543 Radiosonde
WINDFERU01505432022-12-07 00:09:5637.3806-6.39892825915789Clb=4.2m/s t=-63.6C h=3.3% p=107.9hPa 402.505 MHz Type=RS41-SGP ser=U0150543 Radiosonde
EA7KDTU01505432022-12-07 00:09:5437.3805-6.40035805215753Clb=5.0m/s t=-63.5C h=3.2% p=108.5hPa 402.502 MHz Type=RS41-SGP ser=U0150543 Radiosonde
EA4EKH-11U01505432022-12-07 00:09:5337.3803-6.40133885415727Clb=3.6m/s t=-63.4C h=3.2% p=109.0hPa 402.500 MHz Type=RS41-SGP ser=U0150543 Radiosonde
WINDFERU01505432022-12-07 00:09:4837.3801-6.40482835415635Clb=3.3m/s t=-63.3C h=3.2% p=110.6hPa 402.505 MHz Type=RS41-SGP ser=U0150543 Radiosonde
WINDFERU01505432022-12-07 00:09:4737.3793-6.40913744415521Clb=5.4m/s t=-62.7C h=3.1% p=112.7hPa 402.505 MHz Type=RS41-SGP ser=U0150543 Radiosonde
EA7KDTU01505432022-12-07 00:09:4637.3789-6.41038685015481Clb=3.7m/s t=-62.7C h=3.1% p=113.4hPa 402.502 MHz Type=RS41-SGP ser=U0150543 Radiosonde
WINDFERU01505432022-12-07 00:09:4537.3779-6.41349613915379Clb=4.3m/s t=-62.5C h=3.1% p=115.3hPa 402.505 MHz Type=RS41-SGP ser=U0150543 Radiosonde
EA7KDTU01505432022-12-07 00:09:4437.3776-6.41416624315355Clb=3.8m/s t=-62.6C h=3.1% p=115.8hPa 402.502 MHz Type=RS41-SGP ser=U0150543 Radiosonde
WINDFERU01505432022-12-07 00:09:4337.3767-6.41688613515262Clb=4.2m/s t=-62.7C h=3.2% p=117.5hPa 402.505 MHz Type=RS41-SGP ser=U0150543 Radiosonde
EA4EKH-11U01505432022-12-07 00:09:4237.376-6.41831623015201Clb=4.5m/s t=-62.7C h=3.3% p=118.7hPa 402.500 MHz Type=RS41-SGP ser=U0150543 Radiosonde
WINDFERU01505432022-12-07 00:09:4137.3755-6.41974772815133Clb=3.3m/s t=-62.7C h=3.2% p=119.9hPa 402.505 MHz Type=RS41-SGP ser=U0150543 Radiosonde
WINDFERU01505432022-12-07 00:09:3737.3754-6.4235854315000Clb=4.5m/s t=-62.3C h=3.2% p=122.6hPa 402.505 MHz Type=RS41-SGP ser=U0150543 Radiosonde
EA7KDTU01505432022-12-07 00:09:2937.3754-6.42466914314966Clb=4.8m/s t=-62.3C h=3.0% p=123.3hPa 402.502 MHz Type=RS41-SGP ser=U0150543 Radiosonde
EA4EKH-11U01505432022-12-07 00:09:2237.3753-6.42552794814940Clb=3.8m/s t=-62.6C h=3.1% p=123.8hPa 402.500 MHz Type=RS41-SGP ser=U0150543 Radiosonde
CT7AUS-11U01505432022-12-07 00:09:1637.3752-6.42739884414890Clb=4.1m/s t=-273.0C h=-1.0% p=-1.0hPa 402.500 MHz Type=RS41 ser=U0150543 Radiosonde
WINDFERU01505432022-12-07 00:08:5337.3752-6.42811865014868Clb=3.4m/s t=-62.9C h=3.2% p=125.2hPa 402.505 MHz Type=RS41-SGP ser=U0150543 Radiosonde
EA7KDTU01505432022-12-07 00:08:3937.3751-6.42949854814829Clb=5.0m/s t=-62.9C h=3.1% p=126.1hPa 402.502 MHz Type=RS41-SGP ser=U0150543 Radiosonde
EA4EKH-11U01505432022-12-07 00:08:3137.375-6.43028875014807Clb=4.8m/s t=-62.8C h=3.1% p=126.4hPa 402.500 MHz Type=RS41-SGP ser=U0150543 Radiosonde
CT7AUS-11U01505432022-12-07 00:08:2537.3751-6.4309944614790Clb=3.6m/s t=-273.0C h=-1.0% p=-1.0hPa 402.500 MHz Type=RS41 ser=U0150543 Radiosonde
WINDFERU01505432022-12-07 00:08:0437.3752-6.43292934614736Clb=5.0m/s t=-62.4C h=3.0% p=127.9hPa 402.505 MHz Type=RS41-SGP ser=U0150543 Radiosonde
EA7KDTU01505432022-12-07 00:07:5137.3752-6.43437925414697Clb=3.8m/s t=-62.1C h=2.9% p=128.7hPa 402.502 MHz Type=RS41-SGP ser=U0150543 Radiosonde
EA4EKH-11U01505432022-12-07 00:07:4237.3752-6.43519925214675Clb=3.7m/s t=-62.0C h=2.8% p=129.2hPa 402.500 MHz Type=RS41-SGP ser=U0150543 Radiosonde
EA7KDTU01505432022-12-07 00:06:5937.375-6.43959845714561Clb=4.6m/s t=-61.3C h=2.6% p=131.6hPa 402.502 MHz Type=RS41-SGP ser=U0150543 Radiosonde
EA4EKH-11U01505432022-12-07 00:06:4937.3749-6.44045875414537Clb=4.1m/s t=-61.4C h=2.6% p=132.1hPa 402.500 MHz Type=RS41-SGP ser=U0150543 Radiosonde
WINDFERU01505432022-12-07 00:06:2037.3747-6.44343815914463Clb=4.4m/s t=-61.0C h=2.5% p=133.7hPa 402.505 MHz Type=RS41-SGP ser=U0150543 Radiosonde
EA7KDTU01505432022-12-07 00:06:0537.3746-6.44503895614423Clb=3.6m/s t=-60.8C h=2.5% p=134.5hPa 402.502 MHz Type=RS41-SGP ser=U0150543 Radiosonde
EA4EKH-11U01505432022-12-07 00:05:5537.3745-6.4459845914401Clb=5.1m/s t=-273.0C h=-1.0% p=-1.0hPa 402.500 MHz Type=RS41-SGP ser=U0150543 Radiosonde
WINDFERU01505432022-12-07 00:05:2637.3744-6.44949885414311Clb=4.5m/s t=-60.2C h=2.4% p=137.0hPa 402.505 MHz Type=RS41-SGP ser=U0150543 Radiosonde
EA7KDTU01505432022-12-07 00:05:1337.3744-6.45052885614283Clb=4.6m/s t=-60.0C h=2.4% p=137.5hPa 402.502 MHz Type=RS41-SGP ser=U0150543 Radiosonde
WINDFERU01505432022-12-07 00:04:3737.3742-6.45423924814179Clb=3.4m/s t=-59.2C h=2.3% p=139.9hPa 402.505 MHz Type=RS41-SGP ser=U0150543 Radiosonde
EA7KDTU01505432022-12-07 00:04:2337.3742-6.45537804314143Clb=3.9m/s t=-58.8C h=2.2% p=140.8hPa 402.502 MHz Type=RS41-SGP ser=U0150543 Radiosonde
WINDFERU01505432022-12-07 00:03:4537.3742-6.45875914814046Clb=5.3m/s t=-58.0C h=2.1% p=142.8hPa 402.505 MHz Type=RS41-SGP ser=U0150543 Radiosonde
EA7KDTU01505432022-12-07 00:03:3237.3742-6.4601914814004Clb=4.1m/s t=-58.0C h=2.2% p=143.8hPa 402.502 MHz Type=RS41-SGP ser=U0150543 Radiosonde
WINDFERU01505432022-12-07 00:02:5537.3744-6.4637885013909Clb=5.3m/s t=-57.6C h=2.3% p=145.9hPa 402.505 MHz Type=RS41-SGP ser=U0150543 Radiosonde
EA7KDTU01505432022-12-07 00:02:4237.3743-6.46517915913870Clb=3.8m/s t=-57.6C h=2.5% p=146.9hPa 402.502 MHz Type=RS41-SGP ser=U0150543 Radiosonde
WINDFERU01505432022-12-07 00:02:0537.3743-6.46931856113746Clb=6.4m/s t=-57.9C h=2.6% p=149.7hPa 402.505 MHz Type=RS41-SGP ser=U0150543 Radiosonde
EA7KDTU01505432022-12-07 00:01:4937.3741-6.4712816913707Clb=4.5m/s t=-57.9C h=2.8% p=150.7hPa 402.502 MHz Type=RS41-SGP ser=U0150543 Radiosonde
WINDFERU01505432022-12-07 00:01:1137.3733-6.47603766913616Clb=3.2m/s t=-58.4C h=3.2% p=152.9hPa 402.505 MHz Type=RS41-SGP ser=U0150543 Radiosonde
EA7KDTU01505432022-12-07 00:00:5637.3729-6.4781797613580Clb=3.4m/s t=-58.6C h=3.2% p=153.8hPa 402.502 MHz Type=RS41-SGP ser=U0150543 Radiosonde
EA4EKH-11U01505432022-12-07 00:00:4437.3725-6.48078807413531Clb=3.9m/s t=-58.3C h=3.2% p=155.0hPa 402.501 MHz Type=RS41-SGP ser=U0150543 Radiosonde
WINDFERU01505432022-12-07 00:00:1737.3723-6.48296807213490Clb=5.0m/s t=-58.5C h=3.3% p=156.0hPa 402.505 MHz Type=RS41-SGP ser=U0150543 Radiosonde
EA7KDTU01505432022-12-07 00:00:0137.3721-6.48504917213453Clb=3.8m/s t=-58.4C h=3.4% p=156.9hPa 402.502 MHz Type=RS41-SGP ser=U0150543 Radiosonde
EA4EKH-11U01505432022-12-06 23:59:5637.3719-6.48938786913370Clb=3.8m/s t=-58.2C h=3.6% p=159.0hPa 402.501 MHz Type=RS41-SGP ser=U0150543 Radiosonde
WINDFERU01505432022-12-06 23:59:4037.3718-6.4898767013364Clb=4.5m/s t=-58.1C h=3.7% p=159.2hPa 402.505 MHz Type=RS41-SGP ser=U0150543 Radiosonde
EA7KDTU01505432022-12-06 23:59:3937.3716-6.49167826713327Clb=5.6m/s t=-57.8C h=3.6% p=160.2hPa 402.502 MHz Type=RS41-SGP ser=U0150543 Radiosonde
WINDFERU01505432022-12-06 23:59:3837.3713-6.49653867413221Clb=2.5m/s t=-58.2C h=4.1% p=162.8hPa 402.505 MHz Type=RS41-SGP ser=U0150543 Radiosonde
EA7KDTU01505432022-12-06 23:59:3737.3712-6.49843857213184Clb=4.9m/s t=-58.5C h=4.3% p=163.7hPa 402.502 MHz Type=RS41-SGP ser=U0150543 Radiosonde
WINDFERU01505432022-12-06 23:59:3637.3702-6.50338727813088Clb=3.1m/s t=-59.2C h=4.8% p=166.2hPa 402.505 MHz Type=RS41-SGP ser=U0150543 Radiosonde
CT7ABP-10U01505432022-12-06 23:59:3537.3686-6.50853647612999Clb=4.4m/s t=-59.6C h=5.4% p=168.6hPa 402.500 MHz Type=RS41-SGP ser=U0150543 Radiosonde
WINDFERU01505432022-12-06 23:59:3437.3679-6.5104657212959Clb=4.9m/s t=-59.3C h=5.5% p=169.7hPa 402.505 MHz Type=RS41-SGP ser=U0150543 Radiosonde
EA7KDTU01505432022-12-06 23:59:3037.3673-6.51217656712921Clb=4.4m/s t=-59.0C h=5.5% p=170.7hPa 402.502 MHz Type=RS41-SGP ser=U0150543 Radiosonde
WINDFERU01505432022-12-06 23:59:2237.3659-6.51692727212822Clb=4.9m/s t=-59.4C h=6.2% p=173.4hPa 402.505 MHz Type=RS41-SGP ser=U0150543 Radiosonde
EA7KDTU01505432022-12-06 23:59:1237.3655-6.51859776512789Clb=4.0m/s t=-59.4C h=6.3% p=174.3hPa 402.502 MHz Type=RS41-SGP ser=U0150543 Radiosonde
EA4EKH-11U01505432022-12-06 23:59:0537.3653-6.51973686112764Clb=4.6m/s t=-59.3C h=6.5% p=175.1hPa 402.501 MHz Type=RS41-SGP ser=U0150543 Radiosonde
CT7ABP-10U01505432022-12-06 23:59:0137.3647-6.52182725912714Clb=4.3m/s t=-59.5C h=7.3% p=176.4hPa 402.499 MHz Type=RS41-SGP ser=U0150543 Radiosonde
WINDFERU01505432022-12-06 23:59:0037.3645-6.52267685712692Clb=3.7m/s t=-59.3C h=7.3% p=177.1hPa 402.505 MHz Type=RS41-SGP ser=U0150543 Radiosonde
WINDFERU01505432022-12-06 23:58:5937.3632-6.5285756312557Clb=4.1m/s t=-59.1C h=7.8% p=180.9hPa 402.505 MHz Type=RS41-SGP ser=U0150543 Radiosonde
EA7KDTU01505432022-12-06 23:58:5837.363-6.53004776312524Clb=5.0m/s t=-59.0C h=7.6% p=181.8hPa 402.502 MHz Type=RS41-SGP ser=U0150543 Radiosonde
EA4EKH-11U01505432022-12-06 23:58:5737.3628-6.53123816312499Clb=4.5m/s t=-59.2C h=7.9% p=182.6hPa 402.501 MHz Type=RS41-SGP ser=U0150543 Radiosonde
CT7ABP-10U01505432022-12-06 23:58:5337.3627-6.53245876712472Clb=5.0m/s t=-59.2C h=8.1% p=183.4hPa 402.499 MHz Type=RS41-SGP ser=U0150543 Radiosonde
WINDFERU01505432022-12-06 23:58:3837.3625-6.53479836912429Clb=3.6m/s t=-59.7C h=8.8% p=184.6hPa 402.505 MHz Type=RS41-SGP ser=U0150543 Radiosonde
EA7KDTU01505432022-12-06 23:58:2437.3624-6.53653807012395Clb=4.6m/s t=-60.2C h=9.4% p=185.6hPa 402.502 MHz Type=RS41-SGP ser=U0150543 Radiosonde
EA4EKH-11U01505432022-12-06 23:58:1437.3621-6.5379797412371Clb=2.7m/s t=-60.3C h=9.5% p=186.3hPa 402.501 MHz Type=RS41-SGP ser=U0150543 Radiosonde
WINDFERU01505432022-12-06 23:57:4737.3615-6.54168806912300Clb=4.6m/s t=-60.2C h=8.7% p=188.6hPa 402.505 MHz Type=RS41-SGP ser=U0150543 Radiosonde
EA7KDTU01505432022-12-06 23:57:3137.3613-6.54332806512267Clb=4.1m/s t=-60.5C h=9.0% p=189.5hPa 402.502 MHz Type=RS41-SGP ser=U0150543 Radiosonde
EA4EKH-11U01505432022-12-06 23:57:2037.3612-6.54458877012242Clb=3.9m/s t=-273.0C h=-1.0% p=190.2hPa 402.501 MHz Type=RS41-SGP ser=U0150543 Radiosonde
CT7ABP-10U01505432022-12-06 23:57:1437.3612-6.54569886912221Clb=4.6m/s t=-61.0C h=10.2% p=190.9hPa 402.499 MHz Type=RS41-SGP ser=U0150543 Radiosonde
WINDFERU01505432022-12-06 23:56:5137.3611-6.54853857412172Clb=3.9m/s t=-60.8C h=10.6% p=192.4hPa 402.505 MHz Type=RS41-SGP ser=U0150543 Radiosonde
EA7KDTU01505432022-12-06 23:56:3737.361-6.55066857812133Clb=4.1m/s t=-60.8C h=10.7% p=193.6hPa 402.502 MHz Type=RS41-SGP ser=U0150543 Radiosonde
EA4EKH-11U01505432022-12-06 23:56:2637.3609-6.55185837012111Clb=3.2m/s t=-273.0C h=-1.0% p=-1.0hPa 402.501 MHz Type=RS41 ser=U0150543 Radiosonde
WINDFERU01505432022-12-06 23:55:5937.3606-6.55555806712037Clb=3.8m/s t=-60.8C h=11.4% p=196.6hPa 402.505 MHz Type=RS41-SGP ser=U0150543 Radiosonde
EA7KDTU01505432022-12-06 23:55:4637.3603-6.55749766711998Clb=5.0m/s t=-60.8C h=12.0% p=197.8hPa 402.502 MHz Type=RS41-SGP ser=U0150543 Radiosonde
CT7ABP-10U01505432022-12-06 23:55:3237.36-6.55915776911965Clb=3.2m/s t=-60.6C h=12.4% p=198.9hPa 402.499 MHz Type=RS41-SGP ser=U0150543 Radiosonde
WINDFERU01505432022-12-06 23:55:0937.3594-6.56232776911905Clb=4.1m/s t=-60.3C h=12.9% p=200.8hPa 402.505 MHz Type=RS41-SGP ser=U0150543 Radiosonde
EA7KDTU01505432022-12-06 23:54:5637.3591-6.56437778011866Clb=4.7m/s t=-60.2C h=13.0% p=202.1hPa 402.502 MHz Type=RS41-SGP ser=U0150543 Radiosonde
WINDFERU01505432022-12-06 23:54:2037.3582-6.5694757411776Clb=4.6m/s t=-60.6C h=14.8% p=205.0hPa 402.505 MHz Type=RS41-SGP ser=U0150543 Radiosonde
EA7KDTU01505432022-12-06 23:54:0737.3578-6.57151807211738Clb=4.3m/s t=-60.4C h=15.1% p=206.2hPa 402.502 MHz Type=RS41-SGP ser=U0150543 Radiosonde
CT7ABP-10U01505432022-12-06 23:53:5637.3576-6.57309797211709Clb=4.0m/s t=-60.3C h=-1.0% p=-1.0hPa 402.499 MHz Type=RS41 ser=U0150543 Radiosonde
WINDFERU01505432022-12-06 23:53:3137.357-6.57652767211648Clb=4.2m/s t=-60.3C h=17.0% p=209.2hPa 402.505 MHz Type=RS41-SGP ser=U0150543 Radiosonde
EA7KDTU01505432022-12-06 23:53:1737.3567-6.57844757211609Clb=3.2m/s t=-60.6C h=17.5% p=210.6hPa 402.502 MHz Type=RS41-SGP ser=U0150543 Radiosonde
WINDFERU01505432022-12-06 23:52:4037.356-6.58304866311519Clb=4.0m/s t=-60.1C h=18.2% p=213.6hPa 402.505 MHz Type=RS41-SGP ser=U0150543 Radiosonde
EA7KDTU01505432022-12-06 23:52:2637.3558-6.5849816911482Clb=3.8m/s t=-60.0C h=18.8% p=214.9hPa 402.502 MHz Type=RS41-SGP ser=U0150543 Radiosonde
WINDFERU01505432022-12-06 23:51:5337.3555-6.58962836911389Clb=4.0m/s t=-59.5C h=19.3% p=218.1hPa 402.505 MHz Type=RS41-SGP ser=U0150543 Radiosonde
EA7KDTU01505432022-12-06 23:51:4537.3554-6.59162957011353Clb=4.9m/s t=-59.3C h=20.2% p=219.3hPa 402.502 MHz Type=RS41-SGP ser=U0150543 Radiosonde
WINDFERU01505432022-12-06 23:51:2737.3554-6.59663927611261Clb=3.6m/s t=-59.5C h=22.9% p=222.7hPa 402.505 MHz Type=RS41-SGP ser=U0150543 Radiosonde
WINDFERU01505432022-12-06 23:51:1437.3555-6.60481868511128Clb=4.3m/s t=-59.5C h=24.6% p=227.4hPa 402.505 MHz Type=RS41-SGP ser=U0150543 Radiosonde
EA7KDTU01505432022-12-06 23:51:0537.3555-6.60687877811094Clb=4.5m/s t=-59.4C h=26.0% p=228.6hPa 402.502 MHz Type=RS41-SGP ser=U0150543 Radiosonde
WINDFERU01505432022-12-06 23:50:5637.3553-6.61247848510988Clb=4.4m/s t=-58.7C h=24.4% p=232.4hPa 402.505 MHz Type=RS41-SGP ser=U0150543 Radiosonde
WINDFERU01505432022-12-06 23:50:5537.3553-6.61969877610820Clb=3.3m/s t=-57.2C h=22.0% p=238.7hPa 402.505 MHz Type=RS41-SGP ser=U0150543 Radiosonde
EA7KDTU01505432022-12-06 23:50:5437.3553-6.62152897410785Clb=4.1m/s t=-57.0C h=22.3% p=240.0hPa 402.502 MHz Type=RS41-SGP ser=U0150543 Radiosonde
WINDFERU01505432022-12-06 23:50:5337.355-6.62689847610687Clb=4.1m/s t=-56.4C h=22.7% p=243.8hPa 402.505 MHz Type=RS41-SGP ser=U0150543 Radiosonde
WINDFERU01505432022-12-06 23:50:5237.3543-6.63435848010551Clb=4.9m/s t=-56.2C h=26.4% p=249.0hPa 402.505 MHz Type=RS41-SGP ser=U0150543 Radiosonde
EA7KDTU01505432022-12-06 23:50:5137.3542-6.63607847810521Clb=3.1m/s t=-56.0C h=27.6% p=250.3hPa 402.502 MHz Type=RS41-SGP ser=U0150543 Radiosonde
WINDFERU01505432022-12-06 23:50:3337.3538-6.64129856910422Clb=4.3m/s t=-55.4C h=30.6% p=254.1hPa 402.505 MHz Type=RS41-SGP ser=U0150543 Radiosonde
EA7KDTU01505432022-12-06 23:50:2237.3537-6.64308866710388Clb=4.2m/s t=-55.1C h=31.4% p=255.5hPa 402.502 MHz Type=RS41-SGP ser=U0150543 Radiosonde
WINDFERU01505432022-12-06 23:49:4537.3536-6.64804897010293Clb=2.7m/s t=-54.4C h=30.5% p=259.3hPa 402.505 MHz Type=RS41-SGP ser=U0150543 Radiosonde
EA7KDTU01505432022-12-06 23:49:3437.3535-6.65001856910256Clb=4.0m/s t=-54.2C h=28.9% p=260.8hPa 402.502 MHz Type=RS41-SGP ser=U0150543 Radiosonde
WINDFERU01505432022-12-06 23:48:5737.3535-6.65491937210167Clb=4.8m/s t=-53.4C h=23.5% p=264.4hPa 402.505 MHz Type=RS41-SGP ser=U0150543 Radiosonde
EA7KDTU01505432022-12-06 23:48:4537.3535-6.65677867210127Clb=5.0m/s t=-53.0C h=22.4% p=266.1hPa 402.502 MHz Type=RS41-SGP ser=U0150543 Radiosonde
WINDFERU01505432022-12-06 23:48:0937.3533-6.66201917210030Clb=5.6m/s t=-52.1C h=18.7% p=270.1hPa 402.505 MHz Type=RS41-SGP ser=U0150543 Radiosonde
EA7KDTU01505432022-12-06 23:47:5937.3532-6.663983769996Clb=4.4m/s t=-51.8C h=17.8% p=271.6hPa 402.502 MHz Type=RS41-SGP ser=U0150543 Radiosonde
WINDFERU01505432022-12-06 23:47:2637.353-6.6697388809893Clb=5.1m/s t=-51.3C h=15.8% p=276.0hPa 402.505 MHz Type=RS41-SGP ser=U0150543 Radiosonde
EA7KDTU01505432022-12-06 23:47:1337.3529-6.671586809863Clb=3.2m/s t=-51.0C h=15.9% p=277.1hPa 402.502 MHz Type=RS41-SGP ser=U0150543 Radiosonde
WINDFERU01505432022-12-06 23:46:3437.3526-6.6771684729770Clb=3.0m/s t=-50.3C h=17.1% p=281.1hPa 402.505 MHz Type=RS41-SGP ser=U0150543 Radiosonde
EA7KDTU01505432022-12-06 23:46:2137.3525-6.6790586769737Clb=3.6m/s t=-50.1C h=17.8% p=282.5hPa 402.502 MHz Type=RS41-SGP ser=U0150543 Radiosonde
WINDFERU01505432022-12-06 23:45:4437.3519-6.6845886789635Clb=5.7m/s t=-49.5C h=32.4% p=287.1hPa 402.505 MHz Type=RS41-SGP ser=U0150543 Radiosonde
EA7KDTU01505432022-12-06 23:45:3337.3517-6.6868282749590Clb=7.2m/s t=-49.1C h=38.2% p=288.9hPa 402.502 MHz Type=RS41-SGP ser=U0150543 Radiosonde
WINDFERU01505432022-12-06 23:44:5637.3508-6.6917272729446Clb=4.5m/s t=-47.9C h=50.5% p=295.3hPa 402.505 MHz Type=RS41-SGP ser=U0150543 Radiosonde
EA7KDTU01505432022-12-06 23:44:4537.3503-6.6935572619391Clb=6.5m/s t=-47.4C h=56.4% p=297.8hPa 402.502 MHz Type=RS41-SGP ser=U0150543 Radiosonde
WINDFERU01505432022-12-06 23:44:0937.3493-6.6979868659272Clb=5.9m/s t=-46.3C h=54.7% p=303.1hPa 402.505 MHz Type=RS41-SGP ser=U0150543 Radiosonde
EA7KDTU01505432022-12-06 23:43:5937.3488-6.6996876659231Clb=3.7m/s t=-45.9C h=54.7% p=305.0hPa 402.502 MHz Type=RS41-SGP ser=U0150543 Radiosonde
WINDFERU01505432022-12-06 23:43:3637.3472-6.7053973659107Clb=3.0m/s t=-44.7C h=52.9% p=310.8hPa 402.505 MHz Type=RS41-SGP ser=U0150543 Radiosonde
EA7KDTU01505432022-12-06 23:43:3037.3471-6.7057972699098Clb=5.0m/s t=-44.6C h=51.9% p=311.2hPa 402.502 MHz Type=RS41-SGP ser=U0150543 Radiosonde
WINDFERU01505432022-12-06 23:43:2437.3459-6.7102570748994Clb=5.2m/s t=-43.6C h=47.6% p=316.0hPa 402.505 MHz Type=RS41-SGP ser=U0150543 Radiosonde
EA7KDTU01505432022-12-06 23:43:1637.3454-6.7121472658951Clb=5.3m/s t=-43.2C h=47.4% p=318.2hPa 402.502 MHz Type=RS41-SGP ser=U0150543 Radiosonde
WINDFERU01505432022-12-06 23:43:0137.3441-6.7165464698833Clb=5.2m/s t=-42.1C h=43.2% p=323.5hPa 402.504 MHz Type=RS41-SGP ser=U0150543 Radiosonde
EA7KDTU01505432022-12-06 23:43:0037.3435-6.7182178748797Clb=7.5m/s t=-41.7C h=40.5% p=325.4hPa 402.502 MHz Type=RS41-SGP ser=U0150543 Radiosonde
WINDFERU01505432022-12-06 23:42:5837.3421-6.7230766748672Clb=6.2m/s t=-40.5C h=25.9% p=331.4hPa 402.504 MHz Type=RS41-SGP ser=U0150543 Radiosonde
EA7KDTU01505432022-12-06 23:42:5137.3416-6.7248673708632Clb=7.1m/s t=-40.2C h=17.2% p=333.3hPa 402.502 MHz Type=RS41-SGP ser=U0150543 Radiosonde
WINDFERU01505432022-12-06 23:42:1737.3403-6.7296576708524Clb=5.3m/s t=-39.7C h=17.3% p=338.6hPa 402.504 MHz Type=RS41-SGP ser=U0150543 Radiosonde
EA7KDTU01505432022-12-06 23:42:0437.3397-6.732471728469Clb=3.7m/s t=-39.2C h=15.5% p=341.5hPa 402.502 MHz Type=RS41-SGP ser=U0150543 Radiosonde
WINDFERU01505432022-12-06 23:41:2937.3388-6.7363672678389Clb=5.2m/s t=-38.4C h=-1.0% p=345.4hPa 402.504 MHz Type=RS41-SGP ser=U0150543 Radiosonde
EA7KDTU01505432022-12-06 23:41:1737.3385-6.7377276548355Clb=4.7m/s t=-38.1C h=12.1% p=347.0hPa 402.502 MHz Type=RS41-SGP ser=U0150543 Radiosonde
WINDFERU01505432022-12-06 23:40:4237.3375-6.7422169658248Clb=5.3m/s t=-37.2C h=-1.0% p=352.5hPa 402.504 MHz Type=RS41-SGP ser=U0150543 Radiosonde
EA7KDTU01505432022-12-06 23:40:3037.337-6.7440576678207Clb=4.6m/s t=-36.8C h=10.1% p=354.7hPa 402.502 MHz Type=RS41-SGP ser=U0150543 Radiosonde
WINDFERU01505432022-12-06 23:39:5837.336-6.74969578093Clb=4.1m/s t=-35.7C h=-1.0% p=360.3hPa 402.504 MHz Type=RS41-SGP ser=U0150543 Radiosonde
EA7KDTU01505432022-12-06 23:39:5037.3358-6.7499175618071Clb=5.7m/s t=-273.0C h=-1.0% p=361.7hPa 402.502 MHz Type=RS41-SGP ser=U0150543 Radiosonde
WINDFERU01505432022-12-06 23:39:2737.3348-6.7543474657967Clb=4.2m/s t=-34.5C h=-1.0% p=-1.0hPa 402.504 MHz Type=RS41-SGP ser=U0150543 Radiosonde
EA7KDTU01505432022-12-06 23:39:1937.3344-6.7560467617922Clb=4.7m/s t=-273.0C h=-1.0% p=-1.0hPa 402.502 MHz Type=RS41-SGP ser=U0150543 Radiosonde
WINDFERU01505432022-12-06 23:38:5637.3331-6.7611374577805Clb=4.7m/s t=-33.0C h=-1.0% p=-1.0hPa 402.504 MHz Type=RS41-SGP ser=U0150543 Radiosonde
EA7KDTU01505432022-12-06 23:38:4837.333-6.7618670657787Clb=4.7m/s t=-273.0C h=-1.0% p=-1.0hPa 402.502 MHz Type=RS41-SGP ser=U0150543 Radiosonde
WINDFERU01505432022-12-06 23:38:2537.3319-6.7664570637656Clb=3.6m/s t=-31.7C h=-1.0% p=-1.0hPa 402.504 MHz Type=RS41-SGP ser=U0150543 Radiosonde
EA7KDTU01505432022-12-06 23:38:1737.3315-6.768474677611Clb=4.1m/s t=-273.0C h=-1.0% p=-1.0hPa 402.502 MHz Type=RS41 ser=U0150543 Radiosonde
WINDFERU01505432022-12-06 23:38:1437.3304-6.7728473657513Clb=3.8m/s t=-273.0C h=-1.0% p=-1.0hPa 402.504 MHz Type=RS41 ser=U0150543 Radiosonde
WINDFERU01505432022-12-06 23:38:0337.3289-6.7801973617353Clb=4.4m/s t=-273.0C h=-1.0% p=-1.0hPa 402.504 MHz Type=RS41 ser=U0150543 Radiosonde